<?xml version="1.0" encoding="UTF-8" standalone="no" ?>
<gpx xmlns="http://www.topografix.com/GPX/1/1" xmlns:xsi="http://www.w3.org/2001/XMLSchema-instance" xsi:schemaLocation="http://www.topografix.com/GPX/1/1 http://www.topografix.com/GPX/1/1/gpx.xsd" version="1.1" creator="VisuGPX - https://www.visugpx.com">
  <metadata>
    <name>Cyclo : tour de la  montagne de saint genis</name>
    <desc><![CDATA[Monetier-Faye-Savournon-Laragne ]]></desc>
  </metadata>
  <trk>
    <name><![CDATA[ACTIVE LOG 010]]></name>
    <trkseg>
      <trkpt lat="44.38518" lon="5.9423">
        <ele>530.3044434</ele>
        <time>2013-05-02T08:40:35Z</time>
      </trkpt>
      <trkpt lat="44.38519" lon="5.94235">
        <ele>531.7463379</ele>
        <time>2013-05-02T08:40:46Z</time>
      </trkpt>
      <trkpt lat="44.38519" lon="5.94237">
        <ele>535.5915527</ele>
        <time>2013-05-02T08:40:52Z</time>
      </trkpt>
      <trkpt lat="44.3852" lon="5.94238">
        <ele>538.9562988</ele>
        <time>2013-05-02T08:40:57Z</time>
      </trkpt>
      <trkpt lat="44.38521" lon="5.94243">
        <ele>540.8789063</ele>
        <time>2013-05-02T08:41:03Z</time>
      </trkpt>
      <trkpt lat="44.3852" lon="5.94243">
        <ele>543.7628174</ele>
        <time>2013-05-02T08:41:19Z</time>
      </trkpt>
      <trkpt lat="44.3852" lon="5.94243">
        <ele>547.1274414</ele>
        <time>2013-05-02T08:41:27Z</time>
      </trkpt>
      <trkpt lat="44.3852" lon="5.94243">
        <ele>549.5307617</ele>
        <time>2013-05-02T08:41:33Z</time>
      </trkpt>
      <trkpt lat="44.38519" lon="5.94245">
        <ele>551.934082</ele>
        <time>2013-05-02T08:41:48Z</time>
      </trkpt>
      <trkpt lat="44.38507" lon="5.94253">
        <ele>552.4145508</ele>
        <time>2013-05-02T08:41:55Z</time>
      </trkpt>
      <trkpt lat="44.38502" lon="5.94252">
        <ele>552.8952637</ele>
        <time>2013-05-02T08:41:57Z</time>
      </trkpt>
      <trkpt lat="44.38497" lon="5.94255">
        <ele>552.4145508</ele>
        <time>2013-05-02T08:41:59Z</time>
      </trkpt>
      <trkpt lat="44.38492" lon="5.94245">
        <ele>552.8952637</ele>
        <time>2013-05-02T08:42:04Z</time>
      </trkpt>
      <trkpt lat="44.38493" lon="5.94194">
        <ele>552.4145508</ele>
        <time>2013-05-02T08:42:17Z</time>
      </trkpt>
      <trkpt lat="44.38499" lon="5.94155">
        <ele>552.8952637</ele>
        <time>2013-05-02T08:42:24Z</time>
      </trkpt>
      <trkpt lat="44.38505" lon="5.94089">
        <ele>552.8952637</ele>
        <time>2013-05-02T08:42:36Z</time>
      </trkpt>
      <trkpt lat="44.38508" lon="5.94029">
        <ele>552.4145508</ele>
        <time>2013-05-02T08:42:46Z</time>
      </trkpt>
      <trkpt lat="44.38502" lon="5.9398">
        <ele>552.4145508</ele>
        <time>2013-05-02T08:42:53Z</time>
      </trkpt>
      <trkpt lat="44.38527" lon="5.93979">
        <ele>551.4533691</ele>
        <time>2013-05-02T08:43:01Z</time>
      </trkpt>
      <trkpt lat="44.38538" lon="5.93975">
        <ele>553.8566895</ele>
        <time>2013-05-02T08:43:05Z</time>
      </trkpt>
      <trkpt lat="44.38566" lon="5.93965">
        <ele>553.8566895</ele>
        <time>2013-05-02T08:43:18Z</time>
      </trkpt>
      <trkpt lat="44.38573" lon="5.93963">
        <ele>555.7792969</ele>
        <time>2013-05-02T08:43:21Z</time>
      </trkpt>
      <trkpt lat="44.38595" lon="5.93957">
        <ele>559.144043</ele>
        <time>2013-05-02T08:43:41Z</time>
      </trkpt>
      <trkpt lat="44.38651" lon="5.93911">
        <ele>562.0280762</ele>
        <time>2013-05-02T08:44:02Z</time>
      </trkpt>
      <trkpt lat="44.3868" lon="5.93899">
        <ele>564.9118652</ele>
        <time>2013-05-02T08:44:20Z</time>
      </trkpt>
      <trkpt lat="44.38697" lon="5.93867">
        <ele>566.3537598</ele>
        <time>2013-05-02T08:44:35Z</time>
      </trkpt>
      <trkpt lat="44.38697" lon="5.93794">
        <ele>569.7185059</ele>
        <time>2013-05-02T08:44:59Z</time>
      </trkpt>
      <trkpt lat="44.38702" lon="5.93716">
        <ele>572.1218262</ele>
        <time>2013-05-02T08:45:22Z</time>
      </trkpt>
      <trkpt lat="44.38708" lon="5.93604">
        <ele>573.5639648</ele>
        <time>2013-05-02T08:45:51Z</time>
      </trkpt>
      <trkpt lat="44.38714" lon="5.935">
        <ele>575.967041</ele>
        <time>2013-05-02T08:46:16Z</time>
      </trkpt>
      <trkpt lat="44.38719" lon="5.93426">
        <ele>578.8510742</ele>
        <time>2013-05-02T08:46:36Z</time>
      </trkpt>
      <trkpt lat="44.38725" lon="5.93313">
        <ele>581.7348633</ele>
        <time>2013-05-02T08:47:06Z</time>
      </trkpt>
      <trkpt lat="44.38705" lon="5.9321">
        <ele>583.6574707</ele>
        <time>2013-05-02T08:47:30Z</time>
      </trkpt>
      <trkpt lat="44.38683" lon="5.93115">
        <ele>585.5800781</ele>
        <time>2013-05-02T08:47:52Z</time>
      </trkpt>
      <trkpt lat="44.38663" lon="5.93001">
        <ele>587.0219727</ele>
        <time>2013-05-02T08:48:17Z</time>
      </trkpt>
      <trkpt lat="44.38679" lon="5.92918">
        <ele>588.9450684</ele>
        <time>2013-05-02T08:48:35Z</time>
      </trkpt>
      <trkpt lat="44.38683" lon="5.92811">
        <ele>589.90625</ele>
        <time>2013-05-02T08:48:58Z</time>
      </trkpt>
      <trkpt lat="44.38699" lon="5.92716">
        <ele>591.3481445</ele>
        <time>2013-05-02T08:49:19Z</time>
      </trkpt>
      <trkpt lat="44.38685" lon="5.92632">
        <ele>593.270752</ele>
        <time>2013-05-02T08:49:39Z</time>
      </trkpt>
      <trkpt lat="44.38666" lon="5.92551">
        <ele>596.635498</ele>
        <time>2013-05-02T08:50:01Z</time>
      </trkpt>
      <trkpt lat="44.38659" lon="5.92457">
        <ele>597.5966797</ele>
        <time>2013-05-02T08:50:24Z</time>
      </trkpt>
      <trkpt lat="44.38644" lon="5.92351">
        <ele>598.5578613</ele>
        <time>2013-05-02T08:50:48Z</time>
      </trkpt>
      <trkpt lat="44.38609" lon="5.92253">
        <ele>597.1159668</ele>
        <time>2013-05-02T08:51:07Z</time>
      </trkpt>
      <trkpt lat="44.38576" lon="5.92137">
        <ele>594.2321777</ele>
        <time>2013-05-02T08:51:21Z</time>
      </trkpt>
      <trkpt lat="44.38531" lon="5.92043">
        <ele>594.7126465</ele>
        <time>2013-05-02T08:51:37Z</time>
      </trkpt>
      <trkpt lat="44.38471" lon="5.91934">
        <ele>597.5966797</ele>
        <time>2013-05-02T08:52:02Z</time>
      </trkpt>
      <trkpt lat="44.38418" lon="5.91832">
        <ele>599.5192871</ele>
        <time>2013-05-02T08:52:27Z</time>
      </trkpt>
      <trkpt lat="44.3837" lon="5.91744">
        <ele>600.4807129</ele>
        <time>2013-05-02T08:52:49Z</time>
      </trkpt>
      <trkpt lat="44.38319" lon="5.9165">
        <ele>601.4418945</ele>
        <time>2013-05-02T08:53:12Z</time>
      </trkpt>
      <trkpt lat="44.38274" lon="5.91565">
        <ele>601.9226074</ele>
        <time>2013-05-02T08:53:32Z</time>
      </trkpt>
      <trkpt lat="44.38222" lon="5.91469">
        <ele>601.4418945</ele>
        <time>2013-05-02T08:53:52Z</time>
      </trkpt>
      <trkpt lat="44.38159" lon="5.9135">
        <ele>602.4030762</ele>
        <time>2013-05-02T08:54:17Z</time>
      </trkpt>
      <trkpt lat="44.38125" lon="5.91266">
        <ele>601.9226074</ele>
        <time>2013-05-02T08:54:34Z</time>
      </trkpt>
      <trkpt lat="44.38077" lon="5.91146">
        <ele>603.364502</ele>
        <time>2013-05-02T08:54:58Z</time>
      </trkpt>
      <trkpt lat="44.38026" lon="5.91022">
        <ele>603.364502</ele>
        <time>2013-05-02T08:55:23Z</time>
      </trkpt>
      <trkpt lat="44.37982" lon="5.90923">
        <ele>603.364502</ele>
        <time>2013-05-02T08:55:42Z</time>
      </trkpt>
      <trkpt lat="44.37923" lon="5.908">
        <ele>604.8066406</ele>
        <time>2013-05-02T08:56:08Z</time>
      </trkpt>
      <trkpt lat="44.37845" lon="5.90719">
        <ele>605.2873535</ele>
        <time>2013-05-02T08:56:31Z</time>
      </trkpt>
      <trkpt lat="44.37835" lon="5.90708">
        <ele>605.2873535</ele>
        <time>2013-05-02T08:56:34Z</time>
      </trkpt>
      <trkpt lat="44.37762" lon="5.90637">
        <ele>606.2485352</ele>
        <time>2013-05-02T08:56:55Z</time>
      </trkpt>
      <trkpt lat="44.37699" lon="5.90549">
        <ele>607.2099609</ele>
        <time>2013-05-02T08:57:17Z</time>
      </trkpt>
      <trkpt lat="44.37617" lon="5.90489">
        <ele>607.6906738</ele>
        <time>2013-05-02T08:57:38Z</time>
      </trkpt>
      <trkpt lat="44.37548" lon="5.9044">
        <ele>608.6518555</ele>
        <time>2013-05-02T08:57:57Z</time>
      </trkpt>
      <trkpt lat="44.37535" lon="5.90424">
        <ele>608.6518555</ele>
        <time>2013-05-02T08:58:01Z</time>
      </trkpt>
      <trkpt lat="44.37454" lon="5.90326">
        <ele>607.6906738</ele>
        <time>2013-05-02T08:58:24Z</time>
      </trkpt>
      <trkpt lat="44.37386" lon="5.90234">
        <ele>604.3261719</ele>
        <time>2013-05-02T08:58:39Z</time>
      </trkpt>
      <trkpt lat="44.37309" lon="5.90135">
        <ele>600.9611816</ele>
        <time>2013-05-02T08:58:53Z</time>
      </trkpt>
      <trkpt lat="44.37267" lon="5.90081">
        <ele>598.5578613</ele>
        <time>2013-05-02T08:59:00Z</time>
      </trkpt>
      <trkpt lat="44.37199" lon="5.89986">
        <ele>595.6740723</ele>
        <time>2013-05-02T08:59:13Z</time>
      </trkpt>
      <trkpt lat="44.37194" lon="5.89958">
        <ele>595.6740723</ele>
        <time>2013-05-02T08:59:18Z</time>
      </trkpt>
      <trkpt lat="44.37203" lon="5.89931">
        <ele>595.6740723</ele>
        <time>2013-05-02T08:59:23Z</time>
      </trkpt>
      <trkpt lat="44.37225" lon="5.89852">
        <ele>596.1547852</ele>
        <time>2013-05-02T08:59:40Z</time>
      </trkpt>
      <trkpt lat="44.37249" lon="5.89794">
        <ele>599.0385742</ele>
        <time>2013-05-02T08:59:58Z</time>
      </trkpt>
      <trkpt lat="44.37292" lon="5.89756">
        <ele>601.9226074</ele>
        <time>2013-05-02T09:00:17Z</time>
      </trkpt>
      <trkpt lat="44.37327" lon="5.897">
        <ele>603.364502</ele>
        <time>2013-05-02T09:00:36Z</time>
      </trkpt>
      <trkpt lat="44.3736" lon="5.89625">
        <ele>606.2485352</ele>
        <time>2013-05-02T09:01:01Z</time>
      </trkpt>
      <trkpt lat="44.37385" lon="5.89579">
        <ele>609.6132813</ele>
        <time>2013-05-02T09:01:21Z</time>
      </trkpt>
      <trkpt lat="44.37398" lon="5.8954">
        <ele>612.4970703</ele>
        <time>2013-05-02T09:01:38Z</time>
      </trkpt>
      <trkpt lat="44.3741" lon="5.89497">
        <ele>615.8618164</ele>
        <time>2013-05-02T09:01:55Z</time>
      </trkpt>
      <trkpt lat="44.37434" lon="5.89458">
        <ele>618.7456055</ele>
        <time>2013-05-02T09:02:14Z</time>
      </trkpt>
      <trkpt lat="44.37442" lon="5.89412">
        <ele>622.5910645</ele>
        <time>2013-05-02T09:02:33Z</time>
      </trkpt>
      <trkpt lat="44.37444" lon="5.89362">
        <ele>625.4748535</ele>
        <time>2013-05-02T09:02:52Z</time>
      </trkpt>
      <trkpt lat="44.37449" lon="5.89312">
        <ele>628.8395996</ele>
        <time>2013-05-02T09:03:11Z</time>
      </trkpt>
      <trkpt lat="44.37458" lon="5.89271">
        <ele>632.2041016</ele>
        <time>2013-05-02T09:03:28Z</time>
      </trkpt>
      <trkpt lat="44.37464" lon="5.89226">
        <ele>635.5686035</ele>
        <time>2013-05-02T09:03:47Z</time>
      </trkpt>
      <trkpt lat="44.37458" lon="5.89172">
        <ele>638.4528809</ele>
        <time>2013-05-02T09:04:08Z</time>
      </trkpt>
      <trkpt lat="44.37441" lon="5.89128">
        <ele>641.8173828</ele>
        <time>2013-05-02T09:04:26Z</time>
      </trkpt>
      <trkpt lat="44.37417" lon="5.89068">
        <ele>644.7011719</ele>
        <time>2013-05-02T09:04:51Z</time>
      </trkpt>
      <trkpt lat="44.37417" lon="5.8902">
        <ele>647.5852051</ele>
        <time>2013-05-02T09:05:09Z</time>
      </trkpt>
      <trkpt lat="44.37429" lon="5.8897">
        <ele>650.4692383</ele>
        <time>2013-05-02T09:05:29Z</time>
      </trkpt>
      <trkpt lat="44.37451" lon="5.88924">
        <ele>653.8339844</ele>
        <time>2013-05-02T09:05:49Z</time>
      </trkpt>
      <trkpt lat="44.3749" lon="5.88883">
        <ele>656.2370605</ele>
        <time>2013-05-02T09:06:13Z</time>
      </trkpt>
      <trkpt lat="44.37519" lon="5.88855">
        <ele>656.7177734</ele>
        <time>2013-05-02T09:06:29Z</time>
      </trkpt>
      <trkpt lat="44.37559" lon="5.88815">
        <ele>658.6403809</ele>
        <time>2013-05-02T09:06:50Z</time>
      </trkpt>
      <trkpt lat="44.37593" lon="5.88762">
        <ele>659.6018066</ele>
        <time>2013-05-02T09:07:12Z</time>
      </trkpt>
      <trkpt lat="44.37615" lon="5.8871">
        <ele>661.0437012</ele>
        <time>2013-05-02T09:07:31Z</time>
      </trkpt>
      <trkpt lat="44.3764" lon="5.88649">
        <ele>662.9663086</ele>
        <time>2013-05-02T09:07:55Z</time>
      </trkpt>
      <trkpt lat="44.37665" lon="5.88589">
        <ele>666.3308105</ele>
        <time>2013-05-02T09:08:20Z</time>
      </trkpt>
      <trkpt lat="44.37686" lon="5.88541">
        <ele>668.2536621</ele>
        <time>2013-05-02T09:08:40Z</time>
      </trkpt>
      <trkpt lat="44.37702" lon="5.88501">
        <ele>669.6958008</ele>
        <time>2013-05-02T09:08:55Z</time>
      </trkpt>
      <trkpt lat="44.37696" lon="5.88459">
        <ele>671.6181641</ele>
        <time>2013-05-02T09:09:11Z</time>
      </trkpt>
      <trkpt lat="44.3768" lon="5.8842">
        <ele>673.5410156</ele>
        <time>2013-05-02T09:09:27Z</time>
      </trkpt>
      <trkpt lat="44.37665" lon="5.88377">
        <ele>676.4248047</ele>
        <time>2013-05-02T09:09:44Z</time>
      </trkpt>
      <trkpt lat="44.37657" lon="5.88326">
        <ele>679.3085938</ele>
        <time>2013-05-02T09:10:04Z</time>
      </trkpt>
      <trkpt lat="44.37646" lon="5.88272">
        <ele>682.192627</ele>
        <time>2013-05-02T09:10:26Z</time>
      </trkpt>
      <trkpt lat="44.37641" lon="5.88244">
        <ele>683.6345215</ele>
        <time>2013-05-02T09:10:45Z</time>
      </trkpt>
      <trkpt lat="44.37641" lon="5.88244">
        <ele>683.6345215</ele>
        <time>2013-05-02T09:11:02Z</time>
      </trkpt>
      <trkpt lat="44.37641" lon="5.88244">
        <ele>684.5961914</ele>
        <time>2013-05-02T09:11:05Z</time>
      </trkpt>
      <trkpt lat="44.37641" lon="5.88244">
        <ele>684.1154785</ele>
        <time>2013-05-02T09:11:51Z</time>
      </trkpt>
      <trkpt lat="44.37641" lon="5.88244">
        <ele>685.0769043</ele>
        <time>2013-05-02T09:12:37Z</time>
      </trkpt>
      <trkpt lat="44.3764" lon="5.88213">
        <ele>686.5187988</ele>
        <time>2013-05-02T09:14:03Z</time>
      </trkpt>
      <trkpt lat="44.37643" lon="5.8816">
        <ele>689.4025879</ele>
        <time>2013-05-02T09:14:22Z</time>
      </trkpt>
      <trkpt lat="44.37647" lon="5.8811">
        <ele>692.767334</ele>
        <time>2013-05-02T09:14:41Z</time>
      </trkpt>
      <trkpt lat="44.37651" lon="5.8806">
        <ele>695.651123</ele>
        <time>2013-05-02T09:15:00Z</time>
      </trkpt>
      <trkpt lat="44.37655" lon="5.88011">
        <ele>699.015625</ele>
        <time>2013-05-02T09:15:19Z</time>
      </trkpt>
      <trkpt lat="44.37658" lon="5.87964">
        <ele>701.8999023</ele>
        <time>2013-05-02T09:15:37Z</time>
      </trkpt>
      <trkpt lat="44.37659" lon="5.87957">
        <ele>702.3803711</ele>
        <time>2013-05-02T09:15:40Z</time>
      </trkpt>
      <trkpt lat="44.37656" lon="5.87919">
        <ele>705.2644043</ele>
        <time>2013-05-02T09:15:56Z</time>
      </trkpt>
      <trkpt lat="44.37656" lon="5.87917">
        <ele>705.2644043</ele>
        <time>2013-05-02T09:15:57Z</time>
      </trkpt>
      <trkpt lat="44.37647" lon="5.87877">
        <ele>708.6289063</ele>
        <time>2013-05-02T09:16:13Z</time>
      </trkpt>
      <trkpt lat="44.37638" lon="5.87835">
        <ele>711.9936523</ele>
        <time>2013-05-02T09:16:32Z</time>
      </trkpt>
      <trkpt lat="44.37628" lon="5.87796">
        <ele>714.8774414</ele>
        <time>2013-05-02T09:16:50Z</time>
      </trkpt>
      <trkpt lat="44.37625" lon="5.87777">
        <ele>716.800293</ele>
        <time>2013-05-02T09:16:58Z</time>
      </trkpt>
      <trkpt lat="44.37625" lon="5.87731">
        <ele>719.2036133</ele>
        <time>2013-05-02T09:17:17Z</time>
      </trkpt>
      <trkpt lat="44.37624" lon="5.87693">
        <ele>722.0874023</ele>
        <time>2013-05-02T09:17:33Z</time>
      </trkpt>
      <trkpt lat="44.37623" lon="5.87667">
        <ele>723.529541</ele>
        <time>2013-05-02T09:17:43Z</time>
      </trkpt>
      <trkpt lat="44.37613" lon="5.87625">
        <ele>726.4133301</ele>
        <time>2013-05-02T09:18:02Z</time>
      </trkpt>
      <trkpt lat="44.37602" lon="5.8759">
        <ele>729.777832</ele>
        <time>2013-05-02T09:18:19Z</time>
      </trkpt>
      <trkpt lat="44.376" lon="5.87537">
        <ele>732.6621094</ele>
        <time>2013-05-02T09:18:40Z</time>
      </trkpt>
      <trkpt lat="44.37601" lon="5.87479">
        <ele>735.5458984</ele>
        <time>2013-05-02T09:19:04Z</time>
      </trkpt>
      <trkpt lat="44.37608" lon="5.87443">
        <ele>738.9106445</ele>
        <time>2013-05-02T09:19:20Z</time>
      </trkpt>
      <trkpt lat="44.37635" lon="5.87414">
        <ele>740.8330078</ele>
        <time>2013-05-02T09:19:38Z</time>
      </trkpt>
      <trkpt lat="44.37665" lon="5.87385">
        <ele>743.717041</ele>
        <time>2013-05-02T09:19:58Z</time>
      </trkpt>
      <trkpt lat="44.37689" lon="5.87356">
        <ele>745.6396484</ele>
        <time>2013-05-02T09:20:17Z</time>
      </trkpt>
      <trkpt lat="44.37714" lon="5.87325">
        <ele>749.0043945</ele>
        <time>2013-05-02T09:20:36Z</time>
      </trkpt>
      <trkpt lat="44.37742" lon="5.8731">
        <ele>751.8884277</ele>
        <time>2013-05-02T09:20:55Z</time>
      </trkpt>
      <trkpt lat="44.37766" lon="5.87294">
        <ele>755.2529297</ele>
        <time>2013-05-02T09:21:12Z</time>
      </trkpt>
      <trkpt lat="44.37779" lon="5.87267">
        <ele>758.1369629</ele>
        <time>2013-05-02T09:21:29Z</time>
      </trkpt>
      <trkpt lat="44.37749" lon="5.87256">
        <ele>761.020752</ele>
        <time>2013-05-02T09:21:48Z</time>
      </trkpt>
      <trkpt lat="44.37731" lon="5.87225">
        <ele>764.385498</ele>
        <time>2013-05-02T09:22:06Z</time>
      </trkpt>
      <trkpt lat="44.37716" lon="5.872">
        <ele>766.3081055</ele>
        <time>2013-05-02T09:22:22Z</time>
      </trkpt>
      <trkpt lat="44.37708" lon="5.87167">
        <ele>770.1533203</ele>
        <time>2013-05-02T09:22:38Z</time>
      </trkpt>
      <trkpt lat="44.37708" lon="5.87136">
        <ele>773.5180664</ele>
        <time>2013-05-02T09:22:53Z</time>
      </trkpt>
      <trkpt lat="44.37694" lon="5.87103">
        <ele>775.9211426</ele>
        <time>2013-05-02T09:23:11Z</time>
      </trkpt>
      <trkpt lat="44.37689" lon="5.87092">
        <ele>776.8825684</ele>
        <time>2013-05-02T09:23:17Z</time>
      </trkpt>
      <trkpt lat="44.37668" lon="5.87033">
        <ele>779.7663574</ele>
        <time>2013-05-02T09:23:46Z</time>
      </trkpt>
      <trkpt lat="44.37666" lon="5.87022">
        <ele>780.7280273</ele>
        <time>2013-05-02T09:23:51Z</time>
      </trkpt>
      <trkpt lat="44.37663" lon="5.87012">
        <ele>781.2087402</ele>
        <time>2013-05-02T09:23:56Z</time>
      </trkpt>
      <trkpt lat="44.37645" lon="5.86978">
        <ele>784.0925293</ele>
        <time>2013-05-02T09:24:17Z</time>
      </trkpt>
      <trkpt lat="44.37617" lon="5.86964">
        <ele>786.0151367</ele>
        <time>2013-05-02T09:24:35Z</time>
      </trkpt>
      <trkpt lat="44.37607" lon="5.86945">
        <ele>787.9377441</ele>
        <time>2013-05-02T09:24:49Z</time>
      </trkpt>
      <trkpt lat="44.37612" lon="5.86942">
        <ele>788.8991699</ele>
        <time>2013-05-02T09:24:53Z</time>
      </trkpt>
      <trkpt lat="44.37633" lon="5.86941">
        <ele>790.8215332</ele>
        <time>2013-05-02T09:25:07Z</time>
      </trkpt>
      <trkpt lat="44.37654" lon="5.86938">
        <ele>793.7055664</ele>
        <time>2013-05-02T09:25:22Z</time>
      </trkpt>
      <trkpt lat="44.37667" lon="5.86933">
        <ele>794.666748</ele>
        <time>2013-05-02T09:25:31Z</time>
      </trkpt>
      <trkpt lat="44.3767" lon="5.86932">
        <ele>795.6281738</ele>
        <time>2013-05-02T09:25:33Z</time>
      </trkpt>
      <trkpt lat="44.37677" lon="5.86929">
        <ele>796.1091309</ele>
        <time>2013-05-02T09:25:38Z</time>
      </trkpt>
      <trkpt lat="44.377" lon="5.86906">
        <ele>798.0317383</ele>
        <time>2013-05-02T09:25:57Z</time>
      </trkpt>
      <trkpt lat="44.37708" lon="5.86896">
        <ele>798.512207</ele>
        <time>2013-05-02T09:26:03Z</time>
      </trkpt>
      <trkpt lat="44.37731" lon="5.86877">
        <ele>800.9155273</ele>
        <time>2013-05-02T09:26:19Z</time>
      </trkpt>
      <trkpt lat="44.3776" lon="5.86873">
        <ele>803.7995605</ele>
        <time>2013-05-02T09:26:38Z</time>
      </trkpt>
      <trkpt lat="44.37793" lon="5.86887">
        <ele>806.6833496</ele>
        <time>2013-05-02T09:26:59Z</time>
      </trkpt>
      <trkpt lat="44.37831" lon="5.86892">
        <ele>809.5673828</ele>
        <time>2013-05-02T09:27:22Z</time>
      </trkpt>
      <trkpt lat="44.37857" lon="5.86908">
        <ele>811.0092773</ele>
        <time>2013-05-02T09:27:37Z</time>
      </trkpt>
      <trkpt lat="44.37886" lon="5.86921">
        <ele>813.4128418</ele>
        <time>2013-05-02T09:27:56Z</time>
      </trkpt>
      <trkpt lat="44.37889" lon="5.86922">
        <ele>813.8933105</ele>
        <time>2013-05-02T09:27:58Z</time>
      </trkpt>
      <trkpt lat="44.37899" lon="5.86924">
        <ele>814.3740234</ele>
        <time>2013-05-02T09:28:05Z</time>
      </trkpt>
      <trkpt lat="44.37905" lon="5.86926">
        <ele>814.8547363</ele>
        <time>2013-05-02T09:28:09Z</time>
      </trkpt>
      <trkpt lat="44.37931" lon="5.86935">
        <ele>817.7385254</ele>
        <time>2013-05-02T09:28:26Z</time>
      </trkpt>
      <trkpt lat="44.37955" lon="5.86949">
        <ele>819.661377</ele>
        <time>2013-05-02T09:28:42Z</time>
      </trkpt>
      <trkpt lat="44.37985" lon="5.86954">
        <ele>822.0644531</ele>
        <time>2013-05-02T09:29:02Z</time>
      </trkpt>
      <trkpt lat="44.38009" lon="5.86955">
        <ele>825.4289551</ele>
        <time>2013-05-02T09:29:18Z</time>
      </trkpt>
      <trkpt lat="44.38042" lon="5.86927">
        <ele>827.8322754</ele>
        <time>2013-05-02T09:29:42Z</time>
      </trkpt>
      <trkpt lat="44.38066" lon="5.86903">
        <ele>831.1972656</ele>
        <time>2013-05-02T09:30:02Z</time>
      </trkpt>
      <trkpt lat="44.38078" lon="5.86894">
        <ele>832.6391602</ele>
        <time>2013-05-02T09:30:11Z</time>
      </trkpt>
      <trkpt lat="44.38084" lon="5.8689">
        <ele>833.1196289</ele>
        <time>2013-05-02T09:30:16Z</time>
      </trkpt>
      <trkpt lat="44.38096" lon="5.86885">
        <ele>834.0810547</ele>
        <time>2013-05-02T09:30:24Z</time>
      </trkpt>
      <trkpt lat="44.3812" lon="5.86886">
        <ele>836.0036621</ele>
        <time>2013-05-02T09:30:39Z</time>
      </trkpt>
      <trkpt lat="44.38128" lon="5.86888">
        <ele>836.484375</ele>
        <time>2013-05-02T09:30:45Z</time>
      </trkpt>
      <trkpt lat="44.38134" lon="5.8689">
        <ele>837.4455566</ele>
        <time>2013-05-02T09:30:50Z</time>
      </trkpt>
      <trkpt lat="44.38166" lon="5.86892">
        <ele>840.8100586</ele>
        <time>2013-05-02T09:31:11Z</time>
      </trkpt>
      <trkpt lat="44.382" lon="5.86885">
        <ele>843.2133789</ele>
        <time>2013-05-02T09:31:33Z</time>
      </trkpt>
      <trkpt lat="44.38227" lon="5.86881">
        <ele>845.1362305</ele>
        <time>2013-05-02T09:31:52Z</time>
      </trkpt>
      <trkpt lat="44.38247" lon="5.86874">
        <ele>847.5395508</ele>
        <time>2013-05-02T09:32:06Z</time>
      </trkpt>
      <trkpt lat="44.38275" lon="5.86861">
        <ele>849.9428711</ele>
        <time>2013-05-02T09:32:26Z</time>
      </trkpt>
      <trkpt lat="44.38297" lon="5.8685">
        <ele>852.3459473</ele>
        <time>2013-05-02T09:32:41Z</time>
      </trkpt>
      <trkpt lat="44.3832" lon="5.86839">
        <ele>853.7880859</ele>
        <time>2013-05-02T09:32:56Z</time>
      </trkpt>
      <trkpt lat="44.38321" lon="5.86838">
        <ele>854.2687988</ele>
        <time>2013-05-02T09:32:57Z</time>
      </trkpt>
      <trkpt lat="44.38329" lon="5.86835">
        <ele>855.2299805</ele>
        <time>2013-05-02T09:33:03Z</time>
      </trkpt>
      <trkpt lat="44.3836" lon="5.86818">
        <ele>857.6333008</ele>
        <time>2013-05-02T09:33:24Z</time>
      </trkpt>
      <trkpt lat="44.38393" lon="5.86793">
        <ele>857.6333008</ele>
        <time>2013-05-02T09:33:42Z</time>
      </trkpt>
      <trkpt lat="44.38447" lon="5.86746">
        <ele>857.6333008</ele>
        <time>2013-05-02T09:34:04Z</time>
      </trkpt>
      <trkpt lat="44.38485" lon="5.86716">
        <ele>859.0751953</ele>
        <time>2013-05-02T09:34:21Z</time>
      </trkpt>
      <trkpt lat="44.38533" lon="5.86688">
        <ele>860.517334</ele>
        <time>2013-05-02T09:34:42Z</time>
      </trkpt>
      <trkpt lat="44.38573" lon="5.86668">
        <ele>861.9594727</ele>
        <time>2013-05-02T09:34:59Z</time>
      </trkpt>
      <trkpt lat="44.38602" lon="5.86654">
        <ele>862.9206543</ele>
        <time>2013-05-02T09:35:14Z</time>
      </trkpt>
      <trkpt lat="44.38636" lon="5.8664">
        <ele>864.8432617</ele>
        <time>2013-05-02T09:35:35Z</time>
      </trkpt>
      <trkpt lat="44.38662" lon="5.86628">
        <ele>867.246582</ele>
        <time>2013-05-02T09:35:52Z</time>
      </trkpt>
      <trkpt lat="44.38694" lon="5.86613">
        <ele>869.1691895</ele>
        <time>2013-05-02T09:36:11Z</time>
      </trkpt>
      <trkpt lat="44.3871" lon="5.86604">
        <ele>871.5722656</ele>
        <time>2013-05-02T09:36:22Z</time>
      </trkpt>
      <trkpt lat="44.3874" lon="5.86587">
        <ele>874.4562988</ele>
        <time>2013-05-02T09:36:41Z</time>
      </trkpt>
      <trkpt lat="44.38766" lon="5.8657">
        <ele>877.8210449</ele>
        <time>2013-05-02T09:36:58Z</time>
      </trkpt>
      <trkpt lat="44.38789" lon="5.86554">
        <ele>880.7050781</ele>
        <time>2013-05-02T09:37:15Z</time>
      </trkpt>
      <trkpt lat="44.38812" lon="5.86539">
        <ele>884.0695801</ele>
        <time>2013-05-02T09:37:32Z</time>
      </trkpt>
      <trkpt lat="44.3883" lon="5.86522">
        <ele>886.4729004</ele>
        <time>2013-05-02T09:37:47Z</time>
      </trkpt>
      <trkpt lat="44.38834" lon="5.86518">
        <ele>887.434082</ele>
        <time>2013-05-02T09:37:51Z</time>
      </trkpt>
      <trkpt lat="44.38867" lon="5.8648">
        <ele>887.9147949</ele>
        <time>2013-05-02T09:38:13Z</time>
      </trkpt>
      <trkpt lat="44.38898" lon="5.86442">
        <ele>888.8762207</ele>
        <time>2013-05-02T09:38:31Z</time>
      </trkpt>
      <trkpt lat="44.38931" lon="5.86417">
        <ele>889.3566895</ele>
        <time>2013-05-02T09:38:47Z</time>
      </trkpt>
      <trkpt lat="44.38964" lon="5.86401">
        <ele>890.798584</ele>
        <time>2013-05-02T09:39:05Z</time>
      </trkpt>
      <trkpt lat="44.38981" lon="5.86393">
        <ele>892.2409668</ele>
        <time>2013-05-02T09:39:15Z</time>
      </trkpt>
      <trkpt lat="44.39016" lon="5.86358">
        <ele>895.1247559</ele>
        <time>2013-05-02T09:39:40Z</time>
      </trkpt>
      <trkpt lat="44.39042" lon="5.86315">
        <ele>896.5668945</ele>
        <time>2013-05-02T09:40:01Z</time>
      </trkpt>
      <trkpt lat="44.39078" lon="5.86274">
        <ele>898.9699707</ele>
        <time>2013-05-02T09:40:23Z</time>
      </trkpt>
      <trkpt lat="44.39109" lon="5.8624">
        <ele>901.8540039</ele>
        <time>2013-05-02T09:40:43Z</time>
      </trkpt>
      <trkpt lat="44.39139" lon="5.86203">
        <ele>904.2573242</ele>
        <time>2013-05-02T09:41:04Z</time>
      </trkpt>
      <trkpt lat="44.39165" lon="5.8617">
        <ele>907.1411133</ele>
        <time>2013-05-02T09:41:23Z</time>
      </trkpt>
      <trkpt lat="44.39189" lon="5.86138">
        <ele>909.5446777</ele>
        <time>2013-05-02T09:41:41Z</time>
      </trkpt>
      <trkpt lat="44.39206" lon="5.86091">
        <ele>910.9865723</ele>
        <time>2013-05-02T09:41:59Z</time>
      </trkpt>
      <trkpt lat="44.39224" lon="5.86029">
        <ele>911.947998</ele>
        <time>2013-05-02T09:42:19Z</time>
      </trkpt>
      <trkpt lat="44.39249" lon="5.85964">
        <ele>913.8703613</ele>
        <time>2013-05-02T09:42:41Z</time>
      </trkpt>
      <trkpt lat="44.39267" lon="5.85919">
        <ele>915.3125</ele>
        <time>2013-05-02T09:42:59Z</time>
      </trkpt>
      <trkpt lat="44.39279" lon="5.85875">
        <ele>915.7932129</ele>
        <time>2013-05-02T09:43:09Z</time>
      </trkpt>
      <trkpt lat="44.39322" lon="5.85782">
        <ele>912.9091797</ele>
        <time>2013-05-02T09:43:23Z</time>
      </trkpt>
      <trkpt lat="44.39355" lon="5.85694">
        <ele>911.947998</ele>
        <time>2013-05-02T09:43:37Z</time>
      </trkpt>
      <trkpt lat="44.39382" lon="5.85629">
        <ele>913.3898926</ele>
        <time>2013-05-02T09:43:52Z</time>
      </trkpt>
      <trkpt lat="44.39405" lon="5.85585">
        <ele>912.4284668</ele>
        <time>2013-05-02T09:44:03Z</time>
      </trkpt>
      <trkpt lat="44.39438" lon="5.85558">
        <ele>911.947998</ele>
        <time>2013-05-02T09:44:11Z</time>
      </trkpt>
      <trkpt lat="44.3947" lon="5.85513">
        <ele>912.4284668</ele>
        <time>2013-05-02T09:44:25Z</time>
      </trkpt>
      <trkpt lat="44.39514" lon="5.85455">
        <ele>910.5058594</ele>
        <time>2013-05-02T09:44:36Z</time>
      </trkpt>
      <trkpt lat="44.39541" lon="5.85438">
        <ele>910.5058594</ele>
        <time>2013-05-02T09:44:41Z</time>
      </trkpt>
      <trkpt lat="44.39602" lon="5.8544">
        <ele>911.947998</ele>
        <time>2013-05-02T09:44:57Z</time>
      </trkpt>
      <trkpt lat="44.39644" lon="5.85453">
        <ele>912.9091797</ele>
        <time>2013-05-02T09:45:11Z</time>
      </trkpt>
      <trkpt lat="44.39671" lon="5.85457">
        <ele>914.8317871</ele>
        <time>2013-05-02T09:45:25Z</time>
      </trkpt>
      <trkpt lat="44.39697" lon="5.85463">
        <ele>917.7155762</ele>
        <time>2013-05-02T09:45:39Z</time>
      </trkpt>
      <trkpt lat="44.39709" lon="5.85468">
        <ele>918.677002</ele>
        <time>2013-05-02T09:45:47Z</time>
      </trkpt>
      <trkpt lat="44.39715" lon="5.8547">
        <ele>919.1577148</ele>
        <time>2013-05-02T09:45:51Z</time>
      </trkpt>
      <trkpt lat="44.39745" lon="5.8548">
        <ele>923.0029297</ele>
        <time>2013-05-02T09:46:09Z</time>
      </trkpt>
      <trkpt lat="44.39777" lon="5.85485">
        <ele>926.3676758</ele>
        <time>2013-05-02T09:46:28Z</time>
      </trkpt>
      <trkpt lat="44.39805" lon="5.8547">
        <ele>929.2514648</ele>
        <time>2013-05-02T09:46:49Z</time>
      </trkpt>
      <trkpt lat="44.39819" lon="5.85438">
        <ele>927.8095703</ele>
        <time>2013-05-02T09:46:59Z</time>
      </trkpt>
      <trkpt lat="44.39822" lon="5.85414">
        <ele>927.3291016</ele>
        <time>2013-05-02T09:47:03Z</time>
      </trkpt>
      <trkpt lat="44.39822" lon="5.85392">
        <ele>926.3676758</ele>
        <time>2013-05-02T09:47:06Z</time>
      </trkpt>
      <trkpt lat="44.39813" lon="5.85307">
        <ele>922.5222168</ele>
        <time>2013-05-02T09:47:17Z</time>
      </trkpt>
      <trkpt lat="44.39811" lon="5.85289">
        <ele>921.560791</ele>
        <time>2013-05-02T09:47:19Z</time>
      </trkpt>
      <trkpt lat="44.39807" lon="5.8526">
        <ele>920.1188965</ele>
        <time>2013-05-02T09:47:23Z</time>
      </trkpt>
      <trkpt lat="44.39804" lon="5.85232">
        <ele>918.677002</ele>
        <time>2013-05-02T09:47:33Z</time>
      </trkpt>
      <trkpt lat="44.39804" lon="5.85232">
        <ele>918.677002</ele>
        <time>2013-05-02T09:48:51Z</time>
      </trkpt>
      <trkpt lat="44.39798" lon="5.85203">
        <ele>917.2351074</ele>
        <time>2013-05-02T09:48:59Z</time>
      </trkpt>
      <trkpt lat="44.3979" lon="5.85186">
        <ele>917.2351074</ele>
        <time>2013-05-02T09:49:02Z</time>
      </trkpt>
      <trkpt lat="44.39783" lon="5.85159">
        <ele>915.7932129</ele>
        <time>2013-05-02T09:49:06Z</time>
      </trkpt>
      <trkpt lat="44.39779" lon="5.85137">
        <ele>915.7932129</ele>
        <time>2013-05-02T09:49:09Z</time>
      </trkpt>
      <trkpt lat="44.39775" lon="5.85114">
        <ele>914.8317871</ele>
        <time>2013-05-02T09:49:12Z</time>
      </trkpt>
      <trkpt lat="44.39787" lon="5.85083">
        <ele>913.8703613</ele>
        <time>2013-05-02T09:49:16Z</time>
      </trkpt>
      <trkpt lat="44.3983" lon="5.85056">
        <ele>914.3510742</ele>
        <time>2013-05-02T09:49:27Z</time>
      </trkpt>
      <trkpt lat="44.39844" lon="5.8505">
        <ele>914.3510742</ele>
        <time>2013-05-02T09:49:30Z</time>
      </trkpt>
      <trkpt lat="44.39921" lon="5.85043">
        <ele>913.8703613</ele>
        <time>2013-05-02T09:49:48Z</time>
      </trkpt>
      <trkpt lat="44.39972" lon="5.85012">
        <ele>913.8703613</ele>
        <time>2013-05-02T09:50:01Z</time>
      </trkpt>
      <trkpt lat="44.39989" lon="5.85001">
        <ele>913.8703613</ele>
        <time>2013-05-02T09:50:05Z</time>
      </trkpt>
      <trkpt lat="44.39996" lon="5.84993">
        <ele>913.8703613</ele>
        <time>2013-05-02T09:50:07Z</time>
      </trkpt>
      <trkpt lat="44.40036" lon="5.84907">
        <ele>914.3510742</ele>
        <time>2013-05-02T09:50:23Z</time>
      </trkpt>
      <trkpt lat="44.40042" lon="5.8487">
        <ele>913.3898926</ele>
        <time>2013-05-02T09:50:28Z</time>
      </trkpt>
      <trkpt lat="44.40041" lon="5.84837">
        <ele>911.947998</ele>
        <time>2013-05-02T09:50:32Z</time>
      </trkpt>
      <trkpt lat="44.40031" lon="5.84789">
        <ele>910.0251465</ele>
        <time>2013-05-02T09:50:37Z</time>
      </trkpt>
      <trkpt lat="44.40031" lon="5.84737">
        <ele>909.5446777</ele>
        <time>2013-05-02T09:50:42Z</time>
      </trkpt>
      <trkpt lat="44.40046" lon="5.84694">
        <ele>908.583252</ele>
        <time>2013-05-02T09:50:47Z</time>
      </trkpt>
      <trkpt lat="44.40053" lon="5.84682">
        <ele>908.583252</ele>
        <time>2013-05-02T09:50:49Z</time>
      </trkpt>
      <trkpt lat="44.4007" lon="5.84654">
        <ele>908.583252</ele>
        <time>2013-05-02T09:50:53Z</time>
      </trkpt>
      <trkpt lat="44.40106" lon="5.8464">
        <ele>907.6218262</ele>
        <time>2013-05-02T09:51:00Z</time>
      </trkpt>
      <trkpt lat="44.4015" lon="5.84626">
        <ele>910.0251465</ele>
        <time>2013-05-02T09:51:14Z</time>
      </trkpt>
      <trkpt lat="44.40179" lon="5.84574">
        <ele>912.4284668</ele>
        <time>2013-05-02T09:51:33Z</time>
      </trkpt>
      <trkpt lat="44.40202" lon="5.84497">
        <ele>914.3510742</ele>
        <time>2013-05-02T09:51:54Z</time>
      </trkpt>
      <trkpt lat="44.40236" lon="5.8442">
        <ele>915.7932129</ele>
        <time>2013-05-02T09:52:15Z</time>
      </trkpt>
      <trkpt lat="44.40264" lon="5.84365">
        <ele>917.7155762</ele>
        <time>2013-05-02T09:52:31Z</time>
      </trkpt>
      <trkpt lat="44.40281" lon="5.84308">
        <ele>919.6384277</ele>
        <time>2013-05-02T09:52:46Z</time>
      </trkpt>
      <trkpt lat="44.40281" lon="5.84237">
        <ele>921.0803223</ele>
        <time>2013-05-02T09:53:03Z</time>
      </trkpt>
      <trkpt lat="44.40286" lon="5.84171">
        <ele>923.0029297</ele>
        <time>2013-05-02T09:53:19Z</time>
      </trkpt>
      <trkpt lat="44.4031" lon="5.84126">
        <ele>923.4836426</ele>
        <time>2013-05-02T09:53:33Z</time>
      </trkpt>
      <trkpt lat="44.40356" lon="5.84106">
        <ele>925.40625</ele>
        <time>2013-05-02T09:53:49Z</time>
      </trkpt>
      <trkpt lat="44.40397" lon="5.84115">
        <ele>926.8483887</ele>
        <time>2013-05-02T09:54:03Z</time>
      </trkpt>
      <trkpt lat="44.40437" lon="5.84131">
        <ele>928.7709961</ele>
        <time>2013-05-02T09:54:20Z</time>
      </trkpt>
      <trkpt lat="44.4049" lon="5.84163">
        <ele>930.6936035</ele>
        <time>2013-05-02T09:54:41Z</time>
      </trkpt>
      <trkpt lat="44.40537" lon="5.84208">
        <ele>933.0966797</ele>
        <time>2013-05-02T09:55:04Z</time>
      </trkpt>
      <trkpt lat="44.40578" lon="5.84228">
        <ele>934.0581055</ele>
        <time>2013-05-02T09:55:22Z</time>
      </trkpt>
      <trkpt lat="44.40605" lon="5.84215">
        <ele>933.0966797</ele>
        <time>2013-05-02T09:55:34Z</time>
      </trkpt>
      <trkpt lat="44.40651" lon="5.84156">
        <ele>930.6936035</ele>
        <time>2013-05-02T09:55:47Z</time>
      </trkpt>
      <trkpt lat="44.40708" lon="5.84083">
        <ele>928.2902832</ele>
        <time>2013-05-02T09:55:59Z</time>
      </trkpt>
      <trkpt lat="44.40763" lon="5.84063">
        <ele>925.40625</ele>
        <time>2013-05-02T09:56:08Z</time>
      </trkpt>
      <trkpt lat="44.40825" lon="5.84048">
        <ele>925.40625</ele>
        <time>2013-05-02T09:56:20Z</time>
      </trkpt>
      <trkpt lat="44.40868" lon="5.84038">
        <ele>925.8869629</ele>
        <time>2013-05-02T09:56:35Z</time>
      </trkpt>
      <trkpt lat="44.40905" lon="5.8403">
        <ele>926.3676758</ele>
        <time>2013-05-02T09:56:49Z</time>
      </trkpt>
      <trkpt lat="44.40927" lon="5.84026">
        <ele>926.8483887</ele>
        <time>2013-05-02T09:57:05Z</time>
      </trkpt>
      <trkpt lat="44.40927" lon="5.84026">
        <ele>927.8095703</ele>
        <time>2013-05-02T09:58:00Z</time>
      </trkpt>
      <trkpt lat="44.40957" lon="5.84005">
        <ele>925.8869629</ele>
        <time>2013-05-02T09:58:13Z</time>
      </trkpt>
      <trkpt lat="44.40965" lon="5.83999">
        <ele>925.40625</ele>
        <time>2013-05-02T09:58:15Z</time>
      </trkpt>
      <trkpt lat="44.41007" lon="5.83985">
        <ele>921.560791</ele>
        <time>2013-05-02T09:58:22Z</time>
      </trkpt>
      <trkpt lat="44.41015" lon="5.83983">
        <ele>920.1188965</ele>
        <time>2013-05-02T09:58:23Z</time>
      </trkpt>
      <trkpt lat="44.4106" lon="5.83955">
        <ele>915.7932129</ele>
        <time>2013-05-02T09:58:30Z</time>
      </trkpt>
      <trkpt lat="44.41085" lon="5.83951">
        <ele>913.8703613</ele>
        <time>2013-05-02T09:58:34Z</time>
      </trkpt>
      <trkpt lat="44.41106" lon="5.83936">
        <ele>911.947998</ele>
        <time>2013-05-02T09:58:38Z</time>
      </trkpt>
      <trkpt lat="44.41116" lon="5.83923">
        <ele>910.9865723</ele>
        <time>2013-05-02T09:58:40Z</time>
      </trkpt>
      <trkpt lat="44.41129" lon="5.83915">
        <ele>910.0251465</ele>
        <time>2013-05-02T09:58:42Z</time>
      </trkpt>
      <trkpt lat="44.41143" lon="5.83919">
        <ele>908.583252</ele>
        <time>2013-05-02T09:58:44Z</time>
      </trkpt>
      <trkpt lat="44.41166" lon="5.83921">
        <ele>906.1796875</ele>
        <time>2013-05-02T09:58:47Z</time>
      </trkpt>
      <trkpt lat="44.41175" lon="5.83923">
        <ele>905.2185059</ele>
        <time>2013-05-02T09:58:48Z</time>
      </trkpt>
      <trkpt lat="44.41188" lon="5.8393">
        <ele>903.7766113</ele>
        <time>2013-05-02T09:58:50Z</time>
      </trkpt>
      <trkpt lat="44.41215" lon="5.83917">
        <ele>901.373291</ele>
        <time>2013-05-02T09:58:54Z</time>
      </trkpt>
      <trkpt lat="44.41232" lon="5.83919">
        <ele>899.9313965</ele>
        <time>2013-05-02T09:58:56Z</time>
      </trkpt>
      <trkpt lat="44.41248" lon="5.83915">
        <ele>898.4892578</ele>
        <time>2013-05-02T09:58:58Z</time>
      </trkpt>
      <trkpt lat="44.41255" lon="5.83911">
        <ele>897.0473633</ele>
        <time>2013-05-02T09:58:59Z</time>
      </trkpt>
      <trkpt lat="44.41276" lon="5.83884">
        <ele>894.644043</ele>
        <time>2013-05-02T09:59:03Z</time>
      </trkpt>
      <trkpt lat="44.41282" lon="5.83862">
        <ele>893.2021484</ele>
        <time>2013-05-02T09:59:05Z</time>
      </trkpt>
      <trkpt lat="44.41287" lon="5.83852">
        <ele>892.7216797</ele>
        <time>2013-05-02T09:59:06Z</time>
      </trkpt>
      <trkpt lat="44.41297" lon="5.83834">
        <ele>890.3181152</ele>
        <time>2013-05-02T09:59:08Z</time>
      </trkpt>
      <trkpt lat="44.41305" lon="5.83817">
        <ele>888.8762207</ele>
        <time>2013-05-02T09:59:10Z</time>
      </trkpt>
      <trkpt lat="44.41309" lon="5.83809">
        <ele>887.9147949</ele>
        <time>2013-05-02T09:59:11Z</time>
      </trkpt>
      <trkpt lat="44.4133" lon="5.83775">
        <ele>885.5114746</ele>
        <time>2013-05-02T09:59:15Z</time>
      </trkpt>
      <trkpt lat="44.41335" lon="5.83766">
        <ele>883.5888672</ele>
        <time>2013-05-02T09:59:16Z</time>
      </trkpt>
      <trkpt lat="44.41336" lon="5.83723">
        <ele>880.2243652</ele>
        <time>2013-05-02T09:59:21Z</time>
      </trkpt>
      <trkpt lat="44.41329" lon="5.83706">
        <ele>879.7436523</ele>
        <time>2013-05-02T09:59:23Z</time>
      </trkpt>
      <trkpt lat="44.41328" lon="5.83678">
        <ele>877.8210449</ele>
        <time>2013-05-02T09:59:26Z</time>
      </trkpt>
      <trkpt lat="44.41337" lon="5.83663">
        <ele>876.3791504</ele>
        <time>2013-05-02T09:59:28Z</time>
      </trkpt>
      <trkpt lat="44.41343" lon="5.83658">
        <ele>875.4174805</ele>
        <time>2013-05-02T09:59:29Z</time>
      </trkpt>
      <trkpt lat="44.41356" lon="5.83646">
        <ele>873.9755859</ele>
        <time>2013-05-02T09:59:31Z</time>
      </trkpt>
      <trkpt lat="44.41366" lon="5.83602">
        <ele>871.0917969</ele>
        <time>2013-05-02T09:59:35Z</time>
      </trkpt>
      <trkpt lat="44.41374" lon="5.83565">
        <ele>868.6884766</ele>
        <time>2013-05-02T09:59:38Z</time>
      </trkpt>
      <trkpt lat="44.41376" lon="5.83554">
        <ele>866.7658691</ele>
        <time>2013-05-02T09:59:39Z</time>
      </trkpt>
      <trkpt lat="44.41378" lon="5.83534">
        <ele>865.3239746</ele>
        <time>2013-05-02T09:59:41Z</time>
      </trkpt>
      <trkpt lat="44.41397" lon="5.83514">
        <ele>862.9206543</ele>
        <time>2013-05-02T09:59:45Z</time>
      </trkpt>
      <trkpt lat="44.41404" lon="5.83516">
        <ele>861.9594727</ele>
        <time>2013-05-02T09:59:46Z</time>
      </trkpt>
      <trkpt lat="44.41432" lon="5.83525">
        <ele>860.517334</ele>
        <time>2013-05-02T09:59:50Z</time>
      </trkpt>
      <trkpt lat="44.41447" lon="5.83526">
        <ele>859.0751953</ele>
        <time>2013-05-02T09:59:52Z</time>
      </trkpt>
      <trkpt lat="44.41463" lon="5.83518">
        <ele>857.6333008</ele>
        <time>2013-05-02T09:59:54Z</time>
      </trkpt>
      <trkpt lat="44.4148" lon="5.83511">
        <ele>856.671875</ele>
        <time>2013-05-02T09:59:56Z</time>
      </trkpt>
      <trkpt lat="44.41505" lon="5.83512">
        <ele>853.307373</ele>
        <time>2013-05-02T09:59:59Z</time>
      </trkpt>
      <trkpt lat="44.41513" lon="5.83515">
        <ele>851.3847656</ele>
        <time>2013-05-02T10:00:00Z</time>
      </trkpt>
      <trkpt lat="44.41527" lon="5.83524">
        <ele>850.423584</ele>
        <time>2013-05-02T10:00:02Z</time>
      </trkpt>
      <trkpt lat="44.4155" lon="5.83512">
        <ele>848.9814453</ele>
        <time>2013-05-02T10:00:08Z</time>
      </trkpt>
      <trkpt lat="44.41547" lon="5.835">
        <ele>848.9814453</ele>
        <time>2013-05-02T10:00:10Z</time>
      </trkpt>
      <trkpt lat="44.41528" lon="5.83439">
        <ele>848.0202637</ele>
        <time>2013-05-02T10:00:19Z</time>
      </trkpt>
      <trkpt lat="44.41526" lon="5.8341">
        <ele>846.0976563</ele>
        <time>2013-05-02T10:00:23Z</time>
      </trkpt>
      <trkpt lat="44.41514" lon="5.83383">
        <ele>846.5783691</ele>
        <time>2013-05-02T10:00:27Z</time>
      </trkpt>
      <trkpt lat="44.41486" lon="5.83335">
        <ele>844.6555176</ele>
        <time>2013-05-02T10:00:34Z</time>
      </trkpt>
      <trkpt lat="44.41474" lon="5.83298">
        <ele>842.2521973</ele>
        <time>2013-05-02T10:00:38Z</time>
      </trkpt>
      <trkpt lat="44.41476" lon="5.83277">
        <ele>841.2907715</ele>
        <time>2013-05-02T10:00:40Z</time>
      </trkpt>
      <trkpt lat="44.41477" lon="5.83245">
        <ele>838.8876953</ele>
        <time>2013-05-02T10:00:43Z</time>
      </trkpt>
      <trkpt lat="44.41478" lon="5.83235">
        <ele>838.4069824</ele>
        <time>2013-05-02T10:00:44Z</time>
      </trkpt>
      <trkpt lat="44.41486" lon="5.83202">
        <ele>837.4455566</ele>
        <time>2013-05-02T10:00:47Z</time>
      </trkpt>
      <trkpt lat="44.41495" lon="5.83181">
        <ele>836.0036621</ele>
        <time>2013-05-02T10:00:49Z</time>
      </trkpt>
      <trkpt lat="44.41514" lon="5.83154">
        <ele>833.1196289</ele>
        <time>2013-05-02T10:00:52Z</time>
      </trkpt>
      <trkpt lat="44.41527" lon="5.83136">
        <ele>831.6777344</ele>
        <time>2013-05-02T10:00:54Z</time>
      </trkpt>
      <trkpt lat="44.41555" lon="5.83108">
        <ele>828.7939453</ele>
        <time>2013-05-02T10:00:58Z</time>
      </trkpt>
      <trkpt lat="44.41575" lon="5.83069">
        <ele>825.909668</ele>
        <time>2013-05-02T10:01:03Z</time>
      </trkpt>
      <trkpt lat="44.41569" lon="5.83026">
        <ele>825.4289551</ele>
        <time>2013-05-02T10:01:07Z</time>
      </trkpt>
      <trkpt lat="44.41541" lon="5.8287">
        <ele>822.0644531</ele>
        <time>2013-05-02T10:01:23Z</time>
      </trkpt>
      <trkpt lat="44.41521" lon="5.82767">
        <ele>819.1806641</ele>
        <time>2013-05-02T10:01:33Z</time>
      </trkpt>
      <trkpt lat="44.41504" lon="5.82681">
        <ele>815.8161621</ele>
        <time>2013-05-02T10:01:41Z</time>
      </trkpt>
      <trkpt lat="44.415" lon="5.82658">
        <ele>815.3354492</ele>
        <time>2013-05-02T10:01:43Z</time>
      </trkpt>
      <trkpt lat="44.41489" lon="5.82598">
        <ele>811.9707031</ele>
        <time>2013-05-02T10:01:48Z</time>
      </trkpt>
      <trkpt lat="44.41487" lon="5.82586">
        <ele>811.9707031</ele>
        <time>2013-05-02T10:01:49Z</time>
      </trkpt>
      <trkpt lat="44.4148" lon="5.82547">
        <ele>810.5285645</ele>
        <time>2013-05-02T10:01:52Z</time>
      </trkpt>
      <trkpt lat="44.41475" lon="5.82519">
        <ele>809.0866699</ele>
        <time>2013-05-02T10:01:54Z</time>
      </trkpt>
      <trkpt lat="44.41468" lon="5.82476">
        <ele>806.6833496</ele>
        <time>2013-05-02T10:01:57Z</time>
      </trkpt>
      <trkpt lat="44.41462" lon="5.82448">
        <ele>804.7607422</ele>
        <time>2013-05-02T10:01:59Z</time>
      </trkpt>
      <trkpt lat="44.4145" lon="5.82382">
        <ele>802.8381348</ele>
        <time>2013-05-02T10:02:04Z</time>
      </trkpt>
      <trkpt lat="44.4142" lon="5.82275">
        <ele>802.8381348</ele>
        <time>2013-05-02T10:02:15Z</time>
      </trkpt>
      <trkpt lat="44.41378" lon="5.82194">
        <ele>799.4736328</ele>
        <time>2013-05-02T10:02:26Z</time>
      </trkpt>
      <trkpt lat="44.41373" lon="5.82185">
        <ele>799.4736328</ele>
        <time>2013-05-02T10:02:27Z</time>
      </trkpt>
      <trkpt lat="44.41332" lon="5.82105">
        <ele>795.6281738</ele>
        <time>2013-05-02T10:02:35Z</time>
      </trkpt>
      <trkpt lat="44.41298" lon="5.82041">
        <ele>792.7443848</ele>
        <time>2013-05-02T10:02:41Z</time>
      </trkpt>
      <trkpt lat="44.41274" lon="5.81996">
        <ele>789.8603516</ele>
        <time>2013-05-02T10:02:46Z</time>
      </trkpt>
      <trkpt lat="44.41267" lon="5.81978">
        <ele>788.8991699</ele>
        <time>2013-05-02T10:02:48Z</time>
      </trkpt>
      <trkpt lat="44.41269" lon="5.81936">
        <ele>786.9763184</ele>
        <time>2013-05-02T10:02:52Z</time>
      </trkpt>
      <trkpt lat="44.41272" lon="5.81901">
        <ele>785.5344238</ele>
        <time>2013-05-02T10:02:55Z</time>
      </trkpt>
      <trkpt lat="44.41286" lon="5.81808">
        <ele>782.1699219</ele>
        <time>2013-05-02T10:03:03Z</time>
      </trkpt>
      <trkpt lat="44.41288" lon="5.81796">
        <ele>782.1699219</ele>
        <time>2013-05-02T10:03:04Z</time>
      </trkpt>
      <trkpt lat="44.41309" lon="5.81725">
        <ele>778.3244629</ele>
        <time>2013-05-02T10:03:10Z</time>
      </trkpt>
      <trkpt lat="44.41313" lon="5.81712">
        <ele>778.3244629</ele>
        <time>2013-05-02T10:03:11Z</time>
      </trkpt>
      <trkpt lat="44.41328" lon="5.8166">
        <ele>775.4404297</ele>
        <time>2013-05-02T10:03:15Z</time>
      </trkpt>
      <trkpt lat="44.4134" lon="5.8162">
        <ele>773.5180664</ele>
        <time>2013-05-02T10:03:18Z</time>
      </trkpt>
      <trkpt lat="44.41363" lon="5.81544">
        <ele>770.1533203</ele>
        <time>2013-05-02T10:03:24Z</time>
      </trkpt>
      <trkpt lat="44.41395" lon="5.8146">
        <ele>767.2695313</ele>
        <time>2013-05-02T10:03:31Z</time>
      </trkpt>
      <trkpt lat="44.41399" lon="5.81449">
        <ele>767.2695313</ele>
        <time>2013-05-02T10:03:32Z</time>
      </trkpt>
      <trkpt lat="44.41429" lon="5.81365">
        <ele>764.385498</ele>
        <time>2013-05-02T10:03:39Z</time>
      </trkpt>
      <trkpt lat="44.41461" lon="5.81273">
        <ele>761.020752</ele>
        <time>2013-05-02T10:03:47Z</time>
      </trkpt>
      <trkpt lat="44.41478" lon="5.81195">
        <ele>760.0593262</ele>
        <time>2013-05-02T10:03:54Z</time>
      </trkpt>
      <trkpt lat="44.4149" lon="5.81051">
        <ele>757.1755371</ele>
        <time>2013-05-02T10:04:09Z</time>
      </trkpt>
      <trkpt lat="44.415" lon="5.80929">
        <ele>753.8110352</ele>
        <time>2013-05-02T10:04:22Z</time>
      </trkpt>
      <trkpt lat="44.415" lon="5.80919">
        <ele>753.8110352</ele>
        <time>2013-05-02T10:04:23Z</time>
      </trkpt>
      <trkpt lat="44.41503" lon="5.80759">
        <ele>749.9658203</ele>
        <time>2013-05-02T10:04:40Z</time>
      </trkpt>
      <trkpt lat="44.41504" lon="5.80738">
        <ele>749.4851074</ele>
        <time>2013-05-02T10:04:42Z</time>
      </trkpt>
      <trkpt lat="44.41499" lon="5.80694">
        <ele>748.0432129</ele>
        <time>2013-05-02T10:04:46Z</time>
      </trkpt>
      <trkpt lat="44.41477" lon="5.80624">
        <ele>746.1203613</ele>
        <time>2013-05-02T10:04:53Z</time>
      </trkpt>
      <trkpt lat="44.4148" lon="5.8056">
        <ele>742.7558594</ele>
        <time>2013-05-02T10:04:59Z</time>
      </trkpt>
      <trkpt lat="44.41483" lon="5.80549">
        <ele>742.7558594</ele>
        <time>2013-05-02T10:05:00Z</time>
      </trkpt>
      <trkpt lat="44.41493" lon="5.80529">
        <ele>741.7944336</ele>
        <time>2013-05-02T10:05:02Z</time>
      </trkpt>
      <trkpt lat="44.41556" lon="5.80441">
        <ele>740.8330078</ele>
        <time>2013-05-02T10:05:15Z</time>
      </trkpt>
      <trkpt lat="44.41564" lon="5.80431">
        <ele>741.7944336</ele>
        <time>2013-05-02T10:05:17Z</time>
      </trkpt>
      <trkpt lat="44.41635" lon="5.80331">
        <ele>742.2751465</ele>
        <time>2013-05-02T10:05:37Z</time>
      </trkpt>
      <trkpt lat="44.41686" lon="5.80273">
        <ele>741.7944336</ele>
        <time>2013-05-02T10:05:50Z</time>
      </trkpt>
      <trkpt lat="44.41703" lon="5.80242">
        <ele>741.3137207</ele>
        <time>2013-05-02T10:05:55Z</time>
      </trkpt>
      <trkpt lat="44.41706" lon="5.80227">
        <ele>741.3137207</ele>
        <time>2013-05-02T10:05:57Z</time>
      </trkpt>
      <trkpt lat="44.4171" lon="5.8019">
        <ele>740.8330078</ele>
        <time>2013-05-02T10:06:02Z</time>
      </trkpt>
      <trkpt lat="44.41757" lon="5.80141">
        <ele>740.8330078</ele>
        <time>2013-05-02T10:06:13Z</time>
      </trkpt>
      <trkpt lat="44.41766" lon="5.80134">
        <ele>740.8330078</ele>
        <time>2013-05-02T10:06:15Z</time>
      </trkpt>
      <trkpt lat="44.4182" lon="5.80066">
        <ele>741.7944336</ele>
        <time>2013-05-02T10:06:32Z</time>
      </trkpt>
      <trkpt lat="44.41849" lon="5.80021">
        <ele>740.8330078</ele>
        <time>2013-05-02T10:06:41Z</time>
      </trkpt>
      <trkpt lat="44.41875" lon="5.79969">
        <ele>740.3525391</ele>
        <time>2013-05-02T10:06:50Z</time>
      </trkpt>
      <trkpt lat="44.41895" lon="5.79943">
        <ele>740.3525391</ele>
        <time>2013-05-02T10:06:56Z</time>
      </trkpt>
      <trkpt lat="44.41939" lon="5.79896">
        <ele>740.8330078</ele>
        <time>2013-05-02T10:07:11Z</time>
      </trkpt>
      <trkpt lat="44.4198" lon="5.79872">
        <ele>741.3137207</ele>
        <time>2013-05-02T10:07:24Z</time>
      </trkpt>
      <trkpt lat="44.42024" lon="5.79851">
        <ele>742.2751465</ele>
        <time>2013-05-02T10:07:38Z</time>
      </trkpt>
      <trkpt lat="44.42033" lon="5.79793">
        <ele>742.2751465</ele>
        <time>2013-05-02T10:07:48Z</time>
      </trkpt>
      <trkpt lat="44.42044" lon="5.7976">
        <ele>742.2751465</ele>
        <time>2013-05-02T10:07:54Z</time>
      </trkpt>
      <trkpt lat="44.42095" lon="5.79672">
        <ele>742.2751465</ele>
        <time>2013-05-02T10:08:14Z</time>
      </trkpt>
      <trkpt lat="44.42125" lon="5.79601">
        <ele>739.3911133</ele>
        <time>2013-05-02T10:08:26Z</time>
      </trkpt>
      <trkpt lat="44.42155" lon="5.79541">
        <ele>736.987793</ele>
        <time>2013-05-02T10:08:35Z</time>
      </trkpt>
      <trkpt lat="44.42186" lon="5.7949">
        <ele>736.0266113</ele>
        <time>2013-05-02T10:08:43Z</time>
      </trkpt>
      <trkpt lat="44.42185" lon="5.7946">
        <ele>736.987793</ele>
        <time>2013-05-02T10:08:51Z</time>
      </trkpt>
      <trkpt lat="44.42183" lon="5.79458">
        <ele>736.987793</ele>
        <time>2013-05-02T10:08:52Z</time>
      </trkpt>
      <trkpt lat="44.42117" lon="5.79394">
        <ele>737.4685059</ele>
        <time>2013-05-02T10:09:12Z</time>
      </trkpt>
      <trkpt lat="44.42108" lon="5.79382">
        <ele>736.987793</ele>
        <time>2013-05-02T10:09:15Z</time>
      </trkpt>
      <trkpt lat="44.42098" lon="5.79367">
        <ele>736.5073242</ele>
        <time>2013-05-02T10:09:18Z</time>
      </trkpt>
      <trkpt lat="44.42085" lon="5.79337">
        <ele>736.5073242</ele>
        <time>2013-05-02T10:09:23Z</time>
      </trkpt>
      <trkpt lat="44.42075" lon="5.79303">
        <ele>735.5458984</ele>
        <time>2013-05-02T10:09:28Z</time>
      </trkpt>
      <trkpt lat="44.4206" lon="5.79225">
        <ele>735.0654297</ele>
        <time>2013-05-02T10:09:38Z</time>
      </trkpt>
      <trkpt lat="44.42031" lon="5.79148">
        <ele>734.5847168</ele>
        <time>2013-05-02T10:09:49Z</time>
      </trkpt>
      <trkpt lat="44.42022" lon="5.79096">
        <ele>733.623291</ele>
        <time>2013-05-02T10:09:56Z</time>
      </trkpt>
      <trkpt lat="44.42019" lon="5.79081">
        <ele>734.5847168</ele>
        <time>2013-05-02T10:09:58Z</time>
      </trkpt>
      <trkpt lat="44.42014" lon="5.79034">
        <ele>734.5847168</ele>
        <time>2013-05-02T10:10:05Z</time>
      </trkpt>
      <trkpt lat="44.42009" lon="5.78949">
        <ele>736.987793</ele>
        <time>2013-05-02T10:10:22Z</time>
      </trkpt>
      <trkpt lat="44.42019" lon="5.78877">
        <ele>738.9106445</ele>
        <time>2013-05-02T10:10:39Z</time>
      </trkpt>
      <trkpt lat="44.42035" lon="5.78795">
        <ele>739.3911133</ele>
        <time>2013-05-02T10:10:57Z</time>
      </trkpt>
      <trkpt lat="44.42039" lon="5.78724">
        <ele>740.3525391</ele>
        <time>2013-05-02T10:11:11Z</time>
      </trkpt>
      <trkpt lat="44.42039" lon="5.7865">
        <ele>742.7558594</ele>
        <time>2013-05-02T10:11:28Z</time>
      </trkpt>
      <trkpt lat="44.42039" lon="5.78561">
        <ele>739.8718262</ele>
        <time>2013-05-02T10:11:41Z</time>
      </trkpt>
      <trkpt lat="44.42037" lon="5.78528">
        <ele>738.4299316</ele>
        <time>2013-05-02T10:11:44Z</time>
      </trkpt>
      <trkpt lat="44.42033" lon="5.78504">
        <ele>736.987793</ele>
        <time>2013-05-02T10:11:46Z</time>
      </trkpt>
      <trkpt lat="44.42028" lon="5.7845">
        <ele>733.623291</ele>
        <time>2013-05-02T10:11:50Z</time>
      </trkpt>
      <trkpt lat="44.42027" lon="5.78437">
        <ele>733.623291</ele>
        <time>2013-05-02T10:11:51Z</time>
      </trkpt>
      <trkpt lat="44.42023" lon="5.78407">
        <ele>731.7004395</ele>
        <time>2013-05-02T10:11:53Z</time>
      </trkpt>
      <trkpt lat="44.42019" lon="5.78377">
        <ele>729.777832</ele>
        <time>2013-05-02T10:11:55Z</time>
      </trkpt>
      <trkpt lat="44.42015" lon="5.78314">
        <ele>725.9326172</ele>
        <time>2013-05-02T10:11:59Z</time>
      </trkpt>
      <trkpt lat="44.42013" lon="5.78298">
        <ele>725.9326172</ele>
        <time>2013-05-02T10:12:00Z</time>
      </trkpt>
      <trkpt lat="44.42008" lon="5.78266">
        <ele>724.4907227</ele>
        <time>2013-05-02T10:12:02Z</time>
      </trkpt>
      <trkpt lat="44.42004" lon="5.78221">
        <ele>722.0874023</ele>
        <time>2013-05-02T10:12:05Z</time>
      </trkpt>
      <trkpt lat="44.42011" lon="5.78091">
        <ele>718.7229004</ele>
        <time>2013-05-02T10:12:15Z</time>
      </trkpt>
      <trkpt lat="44.42013" lon="5.77924">
        <ele>715.8388672</ele>
        <time>2013-05-02T10:12:31Z</time>
      </trkpt>
      <trkpt lat="44.41997" lon="5.77826">
        <ele>712.954834</ele>
        <time>2013-05-02T10:12:40Z</time>
      </trkpt>
      <trkpt lat="44.41993" lon="5.77803">
        <ele>711.9936523</ele>
        <time>2013-05-02T10:12:42Z</time>
      </trkpt>
      <trkpt lat="44.41981" lon="5.77725">
        <ele>709.590332</ele>
        <time>2013-05-02T10:12:49Z</time>
      </trkpt>
      <trkpt lat="44.41949" lon="5.7761">
        <ele>708.6289063</ele>
        <time>2013-05-02T10:13:01Z</time>
      </trkpt>
      <trkpt lat="44.41914" lon="5.77498">
        <ele>711.5129395</ele>
        <time>2013-05-02T10:13:18Z</time>
      </trkpt>
      <trkpt lat="44.41884" lon="5.77423">
        <ele>711.5129395</ele>
        <time>2013-05-02T10:13:31Z</time>
      </trkpt>
      <trkpt lat="44.41881" lon="5.77398">
        <ele>711.0322266</ele>
        <time>2013-05-02T10:13:34Z</time>
      </trkpt>
      <trkpt lat="44.4188" lon="5.77255">
        <ele>711.5129395</ele>
        <time>2013-05-02T10:13:54Z</time>
      </trkpt>
      <trkpt lat="44.41876" lon="5.77233">
        <ele>711.9936523</ele>
        <time>2013-05-02T10:13:58Z</time>
      </trkpt>
      <trkpt lat="44.41843" lon="5.77082">
        <ele>713.9160156</ele>
        <time>2013-05-02T10:14:24Z</time>
      </trkpt>
      <trkpt lat="44.41828" lon="5.77039">
        <ele>714.3967285</ele>
        <time>2013-05-02T10:14:32Z</time>
      </trkpt>
      <trkpt lat="44.41819" lon="5.77012">
        <ele>713.9160156</ele>
        <time>2013-05-02T10:14:37Z</time>
      </trkpt>
      <trkpt lat="44.41799" lon="5.76982">
        <ele>713.9160156</ele>
        <time>2013-05-02T10:14:43Z</time>
      </trkpt>
      <trkpt lat="44.41788" lon="5.76972">
        <ele>713.9160156</ele>
        <time>2013-05-02T10:14:46Z</time>
      </trkpt>
      <trkpt lat="44.41735" lon="5.76837">
        <ele>710.5515137</ele>
        <time>2013-05-02T10:15:06Z</time>
      </trkpt>
      <trkpt lat="44.4167" lon="5.76749">
        <ele>709.590332</ele>
        <time>2013-05-02T10:15:20Z</time>
      </trkpt>
      <trkpt lat="44.41635" lon="5.76692">
        <ele>711.0322266</ele>
        <time>2013-05-02T10:15:34Z</time>
      </trkpt>
      <trkpt lat="44.41602" lon="5.76619">
        <ele>712.4741211</ele>
        <time>2013-05-02T10:15:51Z</time>
      </trkpt>
      <trkpt lat="44.41565" lon="5.7654">
        <ele>712.954834</ele>
        <time>2013-05-02T10:16:08Z</time>
      </trkpt>
      <trkpt lat="44.41538" lon="5.76431">
        <ele>708.6289063</ele>
        <time>2013-05-02T10:16:23Z</time>
      </trkpt>
      <trkpt lat="44.41537" lon="5.76421">
        <ele>708.6289063</ele>
        <time>2013-05-02T10:16:24Z</time>
      </trkpt>
      <trkpt lat="44.41534" lon="5.76368">
        <ele>706.2255859</ele>
        <time>2013-05-02T10:16:29Z</time>
      </trkpt>
      <trkpt lat="44.41532" lon="5.76295">
        <ele>703.3417969</ele>
        <time>2013-05-02T10:16:35Z</time>
      </trkpt>
      <trkpt lat="44.41532" lon="5.76282">
        <ele>703.3417969</ele>
        <time>2013-05-02T10:16:36Z</time>
      </trkpt>
      <trkpt lat="44.41505" lon="5.76221">
        <ele>700.4580078</ele>
        <time>2013-05-02T10:16:42Z</time>
      </trkpt>
      <trkpt lat="44.41482" lon="5.76199">
        <ele>698.5349121</ele>
        <time>2013-05-02T10:16:45Z</time>
      </trkpt>
      <trkpt lat="44.41436" lon="5.76153">
        <ele>695.1704102</ele>
        <time>2013-05-02T10:16:51Z</time>
      </trkpt>
      <trkpt lat="44.41418" lon="5.7613">
        <ele>693.2478027</ele>
        <time>2013-05-02T10:16:54Z</time>
      </trkpt>
      <trkpt lat="44.41413" lon="5.7611">
        <ele>693.2478027</ele>
        <time>2013-05-02T10:16:56Z</time>
      </trkpt>
      <trkpt lat="44.41408" lon="5.76089">
        <ele>692.2866211</ele>
        <time>2013-05-02T10:16:58Z</time>
      </trkpt>
      <trkpt lat="44.4137" lon="5.76052">
        <ele>691.8059082</ele>
        <time>2013-05-02T10:17:06Z</time>
      </trkpt>
      <trkpt lat="44.41329" lon="5.76062">
        <ele>690.8444824</ele>
        <time>2013-05-02T10:17:13Z</time>
      </trkpt>
      <trkpt lat="44.41284" lon="5.76049">
        <ele>689.4025879</ele>
        <time>2013-05-02T10:17:21Z</time>
      </trkpt>
      <trkpt lat="44.41266" lon="5.76025">
        <ele>688.4414063</ele>
        <time>2013-05-02T10:17:25Z</time>
      </trkpt>
      <trkpt lat="44.41253" lon="5.7601">
        <ele>688.4414063</ele>
        <time>2013-05-02T10:17:28Z</time>
      </trkpt>
      <trkpt lat="44.41165" lon="5.75968">
        <ele>687.4799805</ele>
        <time>2013-05-02T10:17:44Z</time>
      </trkpt>
      <trkpt lat="44.41079" lon="5.75865">
        <ele>685.557373</ele>
        <time>2013-05-02T10:18:04Z</time>
      </trkpt>
      <trkpt lat="44.41012" lon="5.75764">
        <ele>683.1538086</ele>
        <time>2013-05-02T10:18:21Z</time>
      </trkpt>
      <trkpt lat="44.40958" lon="5.75683">
        <ele>679.7893066</ele>
        <time>2013-05-02T10:18:33Z</time>
      </trkpt>
      <trkpt lat="44.40887" lon="5.75597">
        <ele>676.4248047</ele>
        <time>2013-05-02T10:18:46Z</time>
      </trkpt>
      <trkpt lat="44.40842" lon="5.75504">
        <ele>673.0603027</ele>
        <time>2013-05-02T10:18:56Z</time>
      </trkpt>
      <trkpt lat="44.408" lon="5.75438">
        <ele>671.1376953</ele>
        <time>2013-05-02T10:19:04Z</time>
      </trkpt>
      <trkpt lat="44.40739" lon="5.75373">
        <ele>671.6181641</ele>
        <time>2013-05-02T10:19:17Z</time>
      </trkpt>
      <trkpt lat="44.40735" lon="5.75369">
        <ele>671.6181641</ele>
        <time>2013-05-02T10:19:18Z</time>
      </trkpt>
      <trkpt lat="44.40673" lon="5.75304">
        <ele>672.5795898</ele>
        <time>2013-05-02T10:19:36Z</time>
      </trkpt>
      <trkpt lat="44.40667" lon="5.75296">
        <ele>672.5795898</ele>
        <time>2013-05-02T10:19:38Z</time>
      </trkpt>
      <trkpt lat="44.40645" lon="5.75247">
        <ele>673.0603027</ele>
        <time>2013-05-02T10:19:47Z</time>
      </trkpt>
      <trkpt lat="44.40638" lon="5.7523">
        <ele>673.0603027</ele>
        <time>2013-05-02T10:19:50Z</time>
      </trkpt>
      <trkpt lat="44.40633" lon="5.75219">
        <ele>673.0603027</ele>
        <time>2013-05-02T10:19:52Z</time>
      </trkpt>
      <trkpt lat="44.40586" lon="5.75097">
        <ele>673.0603027</ele>
        <time>2013-05-02T10:20:13Z</time>
      </trkpt>
      <trkpt lat="44.40548" lon="5.74992">
        <ele>673.5410156</ele>
        <time>2013-05-02T10:20:31Z</time>
      </trkpt>
      <trkpt lat="44.40538" lon="5.74877">
        <ele>675.9440918</ele>
        <time>2013-05-02T10:20:51Z</time>
      </trkpt>
      <trkpt lat="44.40536" lon="5.74848">
        <ele>675.9440918</ele>
        <time>2013-05-02T10:20:56Z</time>
      </trkpt>
      <trkpt lat="44.40526" lon="5.74724">
        <ele>674.9829102</ele>
        <time>2013-05-02T10:21:14Z</time>
      </trkpt>
      <trkpt lat="44.40523" lon="5.74587">
        <ele>675.9440918</ele>
        <time>2013-05-02T10:21:33Z</time>
      </trkpt>
      <trkpt lat="44.40518" lon="5.74507">
        <ele>677.3862305</ele>
        <time>2013-05-02T10:21:50Z</time>
      </trkpt>
      <trkpt lat="44.40521" lon="5.74433">
        <ele>679.3085938</ele>
        <time>2013-05-02T10:22:07Z</time>
      </trkpt>
      <trkpt lat="44.40542" lon="5.74358">
        <ele>679.3085938</ele>
        <time>2013-05-02T10:22:23Z</time>
      </trkpt>
      <trkpt lat="44.40557" lon="5.74244">
        <ele>676.4248047</ele>
        <time>2013-05-02T10:22:38Z</time>
      </trkpt>
      <trkpt lat="44.40544" lon="5.74098">
        <ele>673.5410156</ele>
        <time>2013-05-02T10:22:53Z</time>
      </trkpt>
      <trkpt lat="44.4053" lon="5.73898">
        <ele>671.1376953</ele>
        <time>2013-05-02T10:23:14Z</time>
      </trkpt>
      <trkpt lat="44.40534" lon="5.73768">
        <ele>669.6958008</ele>
        <time>2013-05-02T10:23:31Z</time>
      </trkpt>
      <trkpt lat="44.40537" lon="5.73727">
        <ele>669.6958008</ele>
        <time>2013-05-02T10:23:36Z</time>
      </trkpt>
      <trkpt lat="44.40543" lon="5.73693">
        <ele>669.6958008</ele>
        <time>2013-05-02T10:23:40Z</time>
      </trkpt>
      <trkpt lat="44.40569" lon="5.7355">
        <ele>668.2536621</ele>
        <time>2013-05-02T10:23:58Z</time>
      </trkpt>
      <trkpt lat="44.40569" lon="5.73533">
        <ele>667.7727051</ele>
        <time>2013-05-02T10:24:00Z</time>
      </trkpt>
      <trkpt lat="44.40537" lon="5.73392">
        <ele>665.3696289</ele>
        <time>2013-05-02T10:24:16Z</time>
      </trkpt>
      <trkpt lat="44.4053" lon="5.73366">
        <ele>663.9274902</ele>
        <time>2013-05-02T10:24:19Z</time>
      </trkpt>
      <trkpt lat="44.4048" lon="5.73169">
        <ele>661.5244141</ele>
        <time>2013-05-02T10:24:43Z</time>
      </trkpt>
      <trkpt lat="44.40465" lon="5.73116">
        <ele>659.1210938</ele>
        <time>2013-05-02T10:24:52Z</time>
      </trkpt>
      <trkpt lat="44.40463" lon="5.73108">
        <ele>661.0437012</ele>
        <time>2013-05-02T10:24:54Z</time>
      </trkpt>
      <trkpt lat="44.40457" lon="5.73085">
        <ele>660.5629883</ele>
        <time>2013-05-02T10:25:01Z</time>
      </trkpt>
      <trkpt lat="44.40424" lon="5.731">
        <ele>660.5629883</ele>
        <time>2013-05-02T10:25:11Z</time>
      </trkpt>
      <trkpt lat="44.40348" lon="5.73155">
        <ele>660.0822754</ele>
        <time>2013-05-02T10:25:28Z</time>
      </trkpt>
      <trkpt lat="44.40251" lon="5.73226">
        <ele>659.1210938</ele>
        <time>2013-05-02T10:25:48Z</time>
      </trkpt>
      <trkpt lat="44.4015" lon="5.733">
        <ele>659.1210938</ele>
        <time>2013-05-02T10:26:08Z</time>
      </trkpt>
      <trkpt lat="44.4014" lon="5.73308">
        <ele>657.6791992</ele>
        <time>2013-05-02T10:26:10Z</time>
      </trkpt>
      <trkpt lat="44.40003" lon="5.73408">
        <ele>656.7177734</ele>
        <time>2013-05-02T10:26:35Z</time>
      </trkpt>
      <trkpt lat="44.39907" lon="5.73477">
        <ele>655.2758789</ele>
        <time>2013-05-02T10:26:53Z</time>
      </trkpt>
      <trkpt lat="44.39754" lon="5.73588">
        <ele>653.3532715</ele>
        <time>2013-05-02T10:27:24Z</time>
      </trkpt>
      <trkpt lat="44.39734" lon="5.73602">
        <ele>653.3532715</ele>
        <time>2013-05-02T10:27:28Z</time>
      </trkpt>
      <trkpt lat="44.39677" lon="5.73637">
        <ele>652.3918457</ele>
        <time>2013-05-02T10:27:40Z</time>
      </trkpt>
      <trkpt lat="44.39648" lon="5.73617">
        <ele>650.4692383</ele>
        <time>2013-05-02T10:27:47Z</time>
      </trkpt>
      <trkpt lat="44.39649" lon="5.73549">
        <ele>648.065918</ele>
        <time>2013-05-02T10:27:54Z</time>
      </trkpt>
      <trkpt lat="44.39667" lon="5.73472">
        <ele>645.1818848</ele>
        <time>2013-05-02T10:28:01Z</time>
      </trkpt>
      <trkpt lat="44.39669" lon="5.73357">
        <ele>645.1818848</ele>
        <time>2013-05-02T10:28:13Z</time>
      </trkpt>
      <trkpt lat="44.39668" lon="5.73322">
        <ele>646.1433105</ele>
        <time>2013-05-02T10:28:18Z</time>
      </trkpt>
      <trkpt lat="44.39674" lon="5.73288">
        <ele>646.6240234</ele>
        <time>2013-05-02T10:28:23Z</time>
      </trkpt>
      <trkpt lat="44.39685" lon="5.73264">
        <ele>645.6625977</ele>
        <time>2013-05-02T10:28:27Z</time>
      </trkpt>
      <trkpt lat="44.39725" lon="5.73204">
        <ele>646.6240234</ele>
        <time>2013-05-02T10:28:39Z</time>
      </trkpt>
      <trkpt lat="44.39738" lon="5.73186">
        <ele>646.6240234</ele>
        <time>2013-05-02T10:28:43Z</time>
      </trkpt>
      <trkpt lat="44.39741" lon="5.73159">
        <ele>646.1433105</ele>
        <time>2013-05-02T10:28:49Z</time>
      </trkpt>
      <trkpt lat="44.39719" lon="5.73093">
        <ele>646.1433105</ele>
        <time>2013-05-02T10:29:06Z</time>
      </trkpt>
      <trkpt lat="44.39687" lon="5.73006">
        <ele>644.7011719</ele>
        <time>2013-05-02T10:29:23Z</time>
      </trkpt>
      <trkpt lat="44.39651" lon="5.72907">
        <ele>643.2592773</ele>
        <time>2013-05-02T10:29:36Z</time>
      </trkpt>
      <trkpt lat="44.39616" lon="5.72892">
        <ele>643.2592773</ele>
        <time>2013-05-02T10:29:44Z</time>
      </trkpt>
      <trkpt lat="44.39611" lon="5.72897">
        <ele>642.7788086</ele>
        <time>2013-05-02T10:29:45Z</time>
      </trkpt>
      <trkpt lat="44.39589" lon="5.72922">
        <ele>642.2980957</ele>
        <time>2013-05-02T10:29:50Z</time>
      </trkpt>
      <trkpt lat="44.39556" lon="5.72954">
        <ele>641.3366699</ele>
        <time>2013-05-02T10:29:56Z</time>
      </trkpt>
      <trkpt lat="44.39529" lon="5.72969">
        <ele>639.4140625</ele>
        <time>2013-05-02T10:30:00Z</time>
      </trkpt>
      <trkpt lat="44.39475" lon="5.72989">
        <ele>636.5302734</ele>
        <time>2013-05-02T10:30:07Z</time>
      </trkpt>
      <trkpt lat="44.39357" lon="5.73056">
        <ele>633.6459961</ele>
        <time>2013-05-02T10:30:23Z</time>
      </trkpt>
      <trkpt lat="44.39261" lon="5.73089">
        <ele>633.1652832</ele>
        <time>2013-05-02T10:30:38Z</time>
      </trkpt>
      <trkpt lat="44.39255" lon="5.7309">
        <ele>633.1652832</ele>
        <time>2013-05-02T10:30:39Z</time>
      </trkpt>
      <trkpt lat="44.3922" lon="5.7309">
        <ele>633.1652832</ele>
        <time>2013-05-02T10:30:45Z</time>
      </trkpt>
      <trkpt lat="44.39143" lon="5.73039">
        <ele>632.6848145</ele>
        <time>2013-05-02T10:30:59Z</time>
      </trkpt>
      <trkpt lat="44.39103" lon="5.73005">
        <ele>633.1652832</ele>
        <time>2013-05-02T10:31:07Z</time>
      </trkpt>
      <trkpt lat="44.3906" lon="5.72993">
        <ele>633.6459961</ele>
        <time>2013-05-02T10:31:15Z</time>
      </trkpt>
      <trkpt lat="44.39022" lon="5.73003">
        <ele>632.2041016</ele>
        <time>2013-05-02T10:31:21Z</time>
      </trkpt>
      <trkpt lat="44.38935" lon="5.73078">
        <ele>628.8395996</ele>
        <time>2013-05-02T10:31:34Z</time>
      </trkpt>
      <trkpt lat="44.38829" lon="5.73154">
        <ele>627.3977051</ele>
        <time>2013-05-02T10:31:51Z</time>
      </trkpt>
      <trkpt lat="44.38777" lon="5.73192">
        <ele>627.3977051</ele>
        <time>2013-05-02T10:32:00Z</time>
      </trkpt>
      <trkpt lat="44.38723" lon="5.73232">
        <ele>626.9169922</ele>
        <time>2013-05-02T10:32:10Z</time>
      </trkpt>
      <trkpt lat="44.38626" lon="5.73299">
        <ele>626.4362793</ele>
        <time>2013-05-02T10:32:27Z</time>
      </trkpt>
      <trkpt lat="44.38577" lon="5.73331">
        <ele>626.9169922</ele>
        <time>2013-05-02T10:32:37Z</time>
      </trkpt>
      <trkpt lat="44.38536" lon="5.73351">
        <ele>629.8007813</ele>
        <time>2013-05-02T10:32:51Z</time>
      </trkpt>
      <trkpt lat="44.38492" lon="5.73346">
        <ele>633.1652832</ele>
        <time>2013-05-02T10:33:08Z</time>
      </trkpt>
      <trkpt lat="44.3846" lon="5.73372">
        <ele>635.0881348</ele>
        <time>2013-05-02T10:33:22Z</time>
      </trkpt>
      <trkpt lat="44.38443" lon="5.73404">
        <ele>637.0107422</ele>
        <time>2013-05-02T10:33:35Z</time>
      </trkpt>
      <trkpt lat="44.3841" lon="5.73431">
        <ele>637.0107422</ele>
        <time>2013-05-02T10:33:48Z</time>
      </trkpt>
      <trkpt lat="44.38334" lon="5.73414">
        <ele>635.0881348</ele>
        <time>2013-05-02T10:34:04Z</time>
      </trkpt>
      <trkpt lat="44.38221" lon="5.73398">
        <ele>631.7233887</ele>
        <time>2013-05-02T10:34:21Z</time>
      </trkpt>
      <trkpt lat="44.38122" lon="5.73382">
        <ele>631.7233887</ele>
        <time>2013-05-02T10:34:37Z</time>
      </trkpt>
      <trkpt lat="44.38037" lon="5.7337">
        <ele>633.6459961</ele>
        <time>2013-05-02T10:34:56Z</time>
      </trkpt>
      <trkpt lat="44.37996" lon="5.7336">
        <ele>633.1652832</ele>
        <time>2013-05-02T10:35:06Z</time>
      </trkpt>
      <trkpt lat="44.37973" lon="5.73355">
        <ele>633.1652832</ele>
        <time>2013-05-02T10:35:11Z</time>
      </trkpt>
      <trkpt lat="44.37942" lon="5.73362">
        <ele>632.6848145</ele>
        <time>2013-05-02T10:35:17Z</time>
      </trkpt>
      <trkpt lat="44.37915" lon="5.73397">
        <ele>629.8007813</ele>
        <time>2013-05-02T10:35:23Z</time>
      </trkpt>
      <trkpt lat="44.37835" lon="5.73489">
        <ele>629.8007813</ele>
        <time>2013-05-02T10:35:41Z</time>
      </trkpt>
      <trkpt lat="44.37734" lon="5.73601">
        <ele>628.3588867</ele>
        <time>2013-05-02T10:36:04Z</time>
      </trkpt>
      <trkpt lat="44.37729" lon="5.73605">
        <ele>627.8781738</ele>
        <time>2013-05-02T10:36:05Z</time>
      </trkpt>
      <trkpt lat="44.37678" lon="5.73636">
        <ele>628.3588867</ele>
        <time>2013-05-02T10:36:15Z</time>
      </trkpt>
      <trkpt lat="44.37577" lon="5.73692">
        <ele>627.3977051</ele>
        <time>2013-05-02T10:36:35Z</time>
      </trkpt>
      <trkpt lat="44.37557" lon="5.73706">
        <ele>627.3977051</ele>
        <time>2013-05-02T10:36:39Z</time>
      </trkpt>
      <trkpt lat="44.3754" lon="5.73737">
        <ele>626.9169922</ele>
        <time>2013-05-02T10:36:44Z</time>
      </trkpt>
      <trkpt lat="44.37513" lon="5.73758">
        <ele>626.4362793</ele>
        <time>2013-05-02T10:36:49Z</time>
      </trkpt>
      <trkpt lat="44.37501" lon="5.73757">
        <ele>625.9555664</ele>
        <time>2013-05-02T10:36:51Z</time>
      </trkpt>
      <trkpt lat="44.37475" lon="5.73786">
        <ele>626.9169922</ele>
        <time>2013-05-02T10:36:57Z</time>
      </trkpt>
      <trkpt lat="44.37401" lon="5.73828">
        <ele>625.9555664</ele>
        <time>2013-05-02T10:37:12Z</time>
      </trkpt>
      <trkpt lat="44.37396" lon="5.73831">
        <ele>626.4362793</ele>
        <time>2013-05-02T10:37:13Z</time>
      </trkpt>
      <trkpt lat="44.37284" lon="5.73878">
        <ele>624.032959</ele>
        <time>2013-05-02T10:37:34Z</time>
      </trkpt>
      <trkpt lat="44.37278" lon="5.7388">
        <ele>624.032959</ele>
        <time>2013-05-02T10:37:35Z</time>
      </trkpt>
      <trkpt lat="44.37234" lon="5.73891">
        <ele>622.1103516</ele>
        <time>2013-05-02T10:37:42Z</time>
      </trkpt>
      <trkpt lat="44.37207" lon="5.739">
        <ele>622.1103516</ele>
        <time>2013-05-02T10:37:46Z</time>
      </trkpt>
      <trkpt lat="44.3717" lon="5.73926">
        <ele>620.668457</ele>
        <time>2013-05-02T10:37:52Z</time>
      </trkpt>
      <trkpt lat="44.37127" lon="5.74014">
        <ele>620.1877441</ele>
        <time>2013-05-02T10:38:06Z</time>
      </trkpt>
      <trkpt lat="44.37093" lon="5.74077">
        <ele>621.6296387</ele>
        <time>2013-05-02T10:38:20Z</time>
      </trkpt>
      <trkpt lat="44.37061" lon="5.74138">
        <ele>621.6296387</ele>
        <time>2013-05-02T10:38:32Z</time>
      </trkpt>
      <trkpt lat="44.37017" lon="5.74215">
        <ele>621.1491699</ele>
        <time>2013-05-02T10:38:46Z</time>
      </trkpt>
      <trkpt lat="44.37002" lon="5.74235">
        <ele>620.668457</ele>
        <time>2013-05-02T10:38:50Z</time>
      </trkpt>
      <trkpt lat="44.36911" lon="5.74278">
        <ele>618.7456055</ele>
        <time>2013-05-02T10:39:07Z</time>
      </trkpt>
      <trkpt lat="44.36837" lon="5.74296">
        <ele>619.2263184</ele>
        <time>2013-05-02T10:39:22Z</time>
      </trkpt>
      <trkpt lat="44.3681" lon="5.74315">
        <ele>618.7456055</ele>
        <time>2013-05-02T10:39:28Z</time>
      </trkpt>
      <trkpt lat="44.3677" lon="5.74388">
        <ele>617.7841797</ele>
        <time>2013-05-02T10:39:40Z</time>
      </trkpt>
      <trkpt lat="44.36697" lon="5.74436">
        <ele>617.3037109</ele>
        <time>2013-05-02T10:39:54Z</time>
      </trkpt>
      <trkpt lat="44.36608" lon="5.74514">
        <ele>616.822998</ele>
        <time>2013-05-02T10:40:13Z</time>
      </trkpt>
      <trkpt lat="44.3652" lon="5.74608">
        <ele>615.8618164</ele>
        <time>2013-05-02T10:40:33Z</time>
      </trkpt>
      <trkpt lat="44.36421" lon="5.74679">
        <ele>613.4584961</ele>
        <time>2013-05-02T10:40:52Z</time>
      </trkpt>
      <trkpt lat="44.36305" lon="5.74771">
        <ele>612.9777832</ele>
        <time>2013-05-02T10:41:16Z</time>
      </trkpt>
      <trkpt lat="44.3622" lon="5.74859">
        <ele>611.5358887</ele>
        <time>2013-05-02T10:41:35Z</time>
      </trkpt>
      <trkpt lat="44.36139" lon="5.74934">
        <ele>611.0551758</ele>
        <time>2013-05-02T10:41:53Z</time>
      </trkpt>
      <trkpt lat="44.36007" lon="5.75033">
        <ele>610.09375</ele>
        <time>2013-05-02T10:42:20Z</time>
      </trkpt>
      <trkpt lat="44.35896" lon="5.75122">
        <ele>609.1325684</ele>
        <time>2013-05-02T10:42:42Z</time>
      </trkpt>
      <trkpt lat="44.35825" lon="5.75171">
        <ele>608.6518555</ele>
        <time>2013-05-02T10:42:55Z</time>
      </trkpt>
      <trkpt lat="44.35806" lon="5.75178">
        <ele>608.6518555</ele>
        <time>2013-05-02T10:42:59Z</time>
      </trkpt>
      <trkpt lat="44.3576" lon="5.75189">
        <ele>607.6906738</ele>
        <time>2013-05-02T10:43:07Z</time>
      </trkpt>
      <trkpt lat="44.35749" lon="5.75194">
        <ele>607.6906738</ele>
        <time>2013-05-02T10:43:09Z</time>
      </trkpt>
      <trkpt lat="44.35695" lon="5.75249">
        <ele>608.6518555</ele>
        <time>2013-05-02T10:43:23Z</time>
      </trkpt>
      <trkpt lat="44.35624" lon="5.75329">
        <ele>606.2485352</ele>
        <time>2013-05-02T10:43:39Z</time>
      </trkpt>
      <trkpt lat="44.35613" lon="5.75337">
        <ele>606.2485352</ele>
        <time>2013-05-02T10:43:41Z</time>
      </trkpt>
      <trkpt lat="44.35576" lon="5.75352">
        <ele>604.8066406</ele>
        <time>2013-05-02T10:43:47Z</time>
      </trkpt>
      <trkpt lat="44.35513" lon="5.75391">
        <ele>601.9226074</ele>
        <time>2013-05-02T10:43:57Z</time>
      </trkpt>
      <trkpt lat="44.35444" lon="5.75452">
        <ele>599.0385742</ele>
        <time>2013-05-02T10:44:07Z</time>
      </trkpt>
      <trkpt lat="44.35348" lon="5.75523">
        <ele>598.0773926</ele>
        <time>2013-05-02T10:44:22Z</time>
      </trkpt>
      <trkpt lat="44.35237" lon="5.75592">
        <ele>596.635498</ele>
        <time>2013-05-02T10:44:41Z</time>
      </trkpt>
      <trkpt lat="44.35135" lon="5.7568">
        <ele>595.6740723</ele>
        <time>2013-05-02T10:45:01Z</time>
      </trkpt>
      <trkpt lat="44.35049" lon="5.75766">
        <ele>595.6740723</ele>
        <time>2013-05-02T10:45:19Z</time>
      </trkpt>
      <trkpt lat="44.34958" lon="5.75838">
        <ele>594.7126465</ele>
        <time>2013-05-02T10:45:36Z</time>
      </trkpt>
      <trkpt lat="44.34853" lon="5.75921">
        <ele>593.7514648</ele>
        <time>2013-05-02T10:45:55Z</time>
      </trkpt>
      <trkpt lat="44.34803" lon="5.75963">
        <ele>593.270752</ele>
        <time>2013-05-02T10:46:05Z</time>
      </trkpt>
      <trkpt lat="44.34767" lon="5.75985">
        <ele>592.7902832</ele>
        <time>2013-05-02T10:46:12Z</time>
      </trkpt>
      <trkpt lat="44.34719" lon="5.76031">
        <ele>593.270752</ele>
        <time>2013-05-02T10:46:24Z</time>
      </trkpt>
      <trkpt lat="44.34672" lon="5.76062">
        <ele>596.1547852</ele>
        <time>2013-05-02T10:46:38Z</time>
      </trkpt>
      <trkpt lat="44.34609" lon="5.76096">
        <ele>598.5578613</ele>
        <time>2013-05-02T10:47:00Z</time>
      </trkpt>
      <trkpt lat="44.34548" lon="5.76141">
        <ele>600.4807129</ele>
        <time>2013-05-02T10:47:22Z</time>
      </trkpt>
      <trkpt lat="44.34478" lon="5.76197">
        <ele>599.5192871</ele>
        <time>2013-05-02T10:47:43Z</time>
      </trkpt>
      <trkpt lat="44.34436" lon="5.76212">
        <ele>598.0773926</ele>
        <time>2013-05-02T10:47:50Z</time>
      </trkpt>
      <trkpt lat="44.344" lon="5.76212">
        <ele>596.635498</ele>
        <time>2013-05-02T10:47:56Z</time>
      </trkpt>
      <trkpt lat="44.34319" lon="5.76168">
        <ele>593.270752</ele>
        <time>2013-05-02T10:48:10Z</time>
      </trkpt>
      <trkpt lat="44.34254" lon="5.76148">
        <ele>595.1933594</ele>
        <time>2013-05-02T10:48:24Z</time>
      </trkpt>
      <trkpt lat="44.34203" lon="5.76181">
        <ele>595.6740723</ele>
        <time>2013-05-02T10:48:38Z</time>
      </trkpt>
      <trkpt lat="44.34192" lon="5.76191">
        <ele>594.7126465</ele>
        <time>2013-05-02T10:48:41Z</time>
      </trkpt>
      <trkpt lat="44.34182" lon="5.76208">
        <ele>594.2321777</ele>
        <time>2013-05-02T10:48:44Z</time>
      </trkpt>
      <trkpt lat="44.34164" lon="5.76266">
        <ele>592.3095703</ele>
        <time>2013-05-02T10:48:51Z</time>
      </trkpt>
      <trkpt lat="44.34144" lon="5.76338">
        <ele>591.8288574</ele>
        <time>2013-05-02T10:49:00Z</time>
      </trkpt>
      <trkpt lat="44.34127" lon="5.76349">
        <ele>592.3095703</ele>
        <time>2013-05-02T10:49:05Z</time>
      </trkpt>
      <trkpt lat="44.34118" lon="5.76371">
        <ele>591.8288574</ele>
        <time>2013-05-02T10:49:10Z</time>
      </trkpt>
      <trkpt lat="44.34118" lon="5.76382">
        <ele>591.3481445</ele>
        <time>2013-05-02T10:49:20Z</time>
      </trkpt>
      <trkpt lat="44.34113" lon="5.76399">
        <ele>590.3869629</ele>
        <time>2013-05-02T10:52:05Z</time>
      </trkpt>
      <trkpt lat="44.34088" lon="5.76456">
        <ele>589.4255371</ele>
        <time>2013-05-02T10:52:19Z</time>
      </trkpt>
      <trkpt lat="44.34048" lon="5.76533">
        <ele>590.3869629</ele>
        <time>2013-05-02T10:52:37Z</time>
      </trkpt>
      <trkpt lat="44.34043" lon="5.76543">
        <ele>589.90625</ele>
        <time>2013-05-02T10:52:39Z</time>
      </trkpt>
      <trkpt lat="44.34033" lon="5.76576">
        <ele>589.4255371</ele>
        <time>2013-05-02T10:52:45Z</time>
      </trkpt>
      <trkpt lat="44.34049" lon="5.76628">
        <ele>588.9450684</ele>
        <time>2013-05-02T10:52:53Z</time>
      </trkpt>
      <trkpt lat="44.34061" lon="5.76652">
        <ele>588.4643555</ele>
        <time>2013-05-02T10:52:57Z</time>
      </trkpt>
      <trkpt lat="44.34056" lon="5.76669">
        <ele>586.5415039</ele>
        <time>2013-05-02T10:53:01Z</time>
      </trkpt>
      <trkpt lat="44.34048" lon="5.76675">
        <ele>585.0996094</ele>
        <time>2013-05-02T10:53:03Z</time>
      </trkpt>
      <trkpt lat="44.34043" lon="5.76677">
        <ele>586.5415039</ele>
        <time>2013-05-02T10:53:04Z</time>
      </trkpt>
      <trkpt lat="44.34035" lon="5.76681">
        <ele>587.0219727</ele>
        <time>2013-05-02T10:53:06Z</time>
      </trkpt>
      <trkpt lat="44.34015" lon="5.76728">
        <ele>587.5026855</ele>
        <time>2013-05-02T10:53:17Z</time>
      </trkpt>
      <trkpt lat="44.34022" lon="5.76818">
        <ele>589.90625</ele>
        <time>2013-05-02T10:53:38Z</time>
      </trkpt>
      <trkpt lat="44.34003" lon="5.76914">
        <ele>591.3481445</ele>
        <time>2013-05-02T10:53:59Z</time>
      </trkpt>
      <trkpt lat="44.33994" lon="5.76968">
        <ele>593.270752</ele>
        <time>2013-05-02T10:54:11Z</time>
      </trkpt>
      <trkpt lat="44.33983" lon="5.77047">
        <ele>596.1547852</ele>
        <time>2013-05-02T10:54:33Z</time>
      </trkpt>
      <trkpt lat="44.33978" lon="5.77107">
        <ele>599.0385742</ele>
        <time>2013-05-02T10:54:53Z</time>
      </trkpt>
      <trkpt lat="44.33977" lon="5.77161">
        <ele>601.9226074</ele>
        <time>2013-05-02T10:55:11Z</time>
      </trkpt>
      <trkpt lat="44.33979" lon="5.77213">
        <ele>605.2873535</ele>
        <time>2013-05-02T10:55:30Z</time>
      </trkpt>
      <trkpt lat="44.33977" lon="5.77265">
        <ele>608.1713867</ele>
        <time>2013-05-02T10:55:49Z</time>
      </trkpt>
      <trkpt lat="44.33988" lon="5.77316">
        <ele>611.0551758</ele>
        <time>2013-05-02T10:56:08Z</time>
      </trkpt>
      <trkpt lat="44.33986" lon="5.77353">
        <ele>610.5744629</ele>
        <time>2013-05-02T10:56:22Z</time>
      </trkpt>
      <trkpt lat="44.33985" lon="5.77357">
        <ele>612.9777832</ele>
        <time>2013-05-02T10:56:24Z</time>
      </trkpt>
      <trkpt lat="44.33981" lon="5.77404">
        <ele>615.8618164</ele>
        <time>2013-05-02T10:56:42Z</time>
      </trkpt>
      <trkpt lat="44.33994" lon="5.77448">
        <ele>617.7841797</ele>
        <time>2013-05-02T10:57:00Z</time>
      </trkpt>
      <trkpt lat="44.34005" lon="5.77496">
        <ele>620.668457</ele>
        <time>2013-05-02T10:57:20Z</time>
      </trkpt>
      <trkpt lat="44.34004" lon="5.77511">
        <ele>620.668457</ele>
        <time>2013-05-02T10:57:26Z</time>
      </trkpt>
      <trkpt lat="44.34" lon="5.77523">
        <ele>620.668457</ele>
        <time>2013-05-02T10:57:31Z</time>
      </trkpt>
      <trkpt lat="44.33965" lon="5.77583">
        <ele>618.7456055</ele>
        <time>2013-05-02T10:57:44Z</time>
      </trkpt>
      <trkpt lat="44.33961" lon="5.7759">
        <ele>618.2648926</ele>
        <time>2013-05-02T10:57:45Z</time>
      </trkpt>
      <trkpt lat="44.3395" lon="5.77604">
        <ele>617.7841797</ele>
        <time>2013-05-02T10:57:48Z</time>
      </trkpt>
      <trkpt lat="44.33911" lon="5.7763">
        <ele>615.3811035</ele>
        <time>2013-05-02T10:57:56Z</time>
      </trkpt>
      <trkpt lat="44.33863" lon="5.77625">
        <ele>613.9389648</ele>
        <time>2013-05-02T10:58:04Z</time>
      </trkpt>
      <trkpt lat="44.33829" lon="5.77595">
        <ele>612.0166016</ele>
        <time>2013-05-02T10:58:11Z</time>
      </trkpt>
      <trkpt lat="44.33759" lon="5.77562">
        <ele>608.6518555</ele>
        <time>2013-05-02T10:58:22Z</time>
      </trkpt>
      <trkpt lat="44.33745" lon="5.7755">
        <ele>607.6906738</ele>
        <time>2013-05-02T10:58:24Z</time>
      </trkpt>
      <trkpt lat="44.33727" lon="5.77538">
        <ele>605.2873535</ele>
        <time>2013-05-02T10:58:26Z</time>
      </trkpt>
      <trkpt lat="44.33709" lon="5.77532">
        <ele>603.8452148</ele>
        <time>2013-05-02T10:58:28Z</time>
      </trkpt>
      <trkpt lat="44.33691" lon="5.77524">
        <ele>601.9226074</ele>
        <time>2013-05-02T10:58:30Z</time>
      </trkpt>
      <trkpt lat="44.33663" lon="5.77514">
        <ele>600</ele>
        <time>2013-05-02T10:58:33Z</time>
      </trkpt>
      <trkpt lat="44.33646" lon="5.77508">
        <ele>598.0773926</ele>
        <time>2013-05-02T10:58:35Z</time>
      </trkpt>
      <trkpt lat="44.33631" lon="5.77502">
        <ele>595.6740723</ele>
        <time>2013-05-02T10:58:37Z</time>
      </trkpt>
      <trkpt lat="44.336" lon="5.77517">
        <ele>594.7126465</ele>
        <time>2013-05-02T10:58:42Z</time>
      </trkpt>
      <trkpt lat="44.33591" lon="5.77531">
        <ele>592.7902832</ele>
        <time>2013-05-02T10:58:44Z</time>
      </trkpt>
      <trkpt lat="44.3357" lon="5.77538">
        <ele>591.3481445</ele>
        <time>2013-05-02T10:58:47Z</time>
      </trkpt>
      <trkpt lat="44.33555" lon="5.77535">
        <ele>590.3869629</ele>
        <time>2013-05-02T10:58:49Z</time>
      </trkpt>
      <trkpt lat="44.33512" lon="5.77523">
        <ele>587.5026855</ele>
        <time>2013-05-02T10:58:54Z</time>
      </trkpt>
      <trkpt lat="44.33494" lon="5.77521">
        <ele>586.5415039</ele>
        <time>2013-05-02T10:58:56Z</time>
      </trkpt>
      <trkpt lat="44.33411" lon="5.77504">
        <ele>588.4643555</ele>
        <time>2013-05-02T10:59:09Z</time>
      </trkpt>
      <trkpt lat="44.3337" lon="5.77498">
        <ele>587.9833984</ele>
        <time>2013-05-02T10:59:17Z</time>
      </trkpt>
      <trkpt lat="44.33262" lon="5.77498">
        <ele>584.1381836</ele>
        <time>2013-05-02T10:59:34Z</time>
      </trkpt>
      <trkpt lat="44.33245" lon="5.775">
        <ele>584.1381836</ele>
        <time>2013-05-02T10:59:37Z</time>
      </trkpt>
      <trkpt lat="44.33219" lon="5.77512">
        <ele>584.1381836</ele>
        <time>2013-05-02T10:59:42Z</time>
      </trkpt>
      <trkpt lat="44.33167" lon="5.77559">
        <ele>585.5800781</ele>
        <time>2013-05-02T10:59:58Z</time>
      </trkpt>
      <trkpt lat="44.33129" lon="5.77585">
        <ele>584.6188965</ele>
        <time>2013-05-02T11:00:08Z</time>
      </trkpt>
      <trkpt lat="44.3304" lon="5.77593">
        <ele>585.0996094</ele>
        <time>2013-05-02T11:00:27Z</time>
      </trkpt>
      <trkpt lat="44.32989" lon="5.77595">
        <ele>587.0219727</ele>
        <time>2013-05-02T11:00:43Z</time>
      </trkpt>
      <trkpt lat="44.32915" lon="5.77594">
        <ele>588.9450684</ele>
        <time>2013-05-02T11:01:04Z</time>
      </trkpt>
      <trkpt lat="44.32832" lon="5.7759">
        <ele>589.4255371</ele>
        <time>2013-05-02T11:01:26Z</time>
      </trkpt>
      <trkpt lat="44.32777" lon="5.77574">
        <ele>591.3481445</ele>
        <time>2013-05-02T11:01:43Z</time>
      </trkpt>
      <trkpt lat="44.32715" lon="5.77594">
        <ele>591.8288574</ele>
        <time>2013-05-02T11:02:01Z</time>
      </trkpt>
      <trkpt lat="44.32699" lon="5.776">
        <ele>591.8288574</ele>
        <time>2013-05-02T11:02:05Z</time>
      </trkpt>
      <trkpt lat="44.32681" lon="5.7762">
        <ele>590.8674316</ele>
        <time>2013-05-02T11:02:10Z</time>
      </trkpt>
      <trkpt lat="44.32676" lon="5.77632">
        <ele>591.3481445</ele>
        <time>2013-05-02T11:02:12Z</time>
      </trkpt>
      <trkpt lat="44.32643" lon="5.77733">
        <ele>590.8674316</ele>
        <time>2013-05-02T11:02:31Z</time>
      </trkpt>
      <trkpt lat="44.32609" lon="5.77781">
        <ele>591.8288574</ele>
        <time>2013-05-02T11:02:43Z</time>
      </trkpt>
      <trkpt lat="44.32571" lon="5.77811">
        <ele>593.270752</ele>
        <time>2013-05-02T11:02:54Z</time>
      </trkpt>
      <trkpt lat="44.32527" lon="5.77852">
        <ele>593.270752</ele>
        <time>2013-05-02T11:03:07Z</time>
      </trkpt>
      <trkpt lat="44.32483" lon="5.77893">
        <ele>594.2321777</ele>
        <time>2013-05-02T11:03:20Z</time>
      </trkpt>
      <trkpt lat="44.32445" lon="5.77921">
        <ele>594.2321777</ele>
        <time>2013-05-02T11:03:30Z</time>
      </trkpt>
      <trkpt lat="44.32378" lon="5.77963">
        <ele>594.7126465</ele>
        <time>2013-05-02T11:03:47Z</time>
      </trkpt>
      <trkpt lat="44.32303" lon="5.78008">
        <ele>596.1547852</ele>
        <time>2013-05-02T11:04:08Z</time>
      </trkpt>
      <trkpt lat="44.32229" lon="5.78054">
        <ele>597.1159668</ele>
        <time>2013-05-02T11:04:29Z</time>
      </trkpt>
      <trkpt lat="44.32147" lon="5.78117">
        <ele>597.1159668</ele>
        <time>2013-05-02T11:04:51Z</time>
      </trkpt>
      <trkpt lat="44.3206" lon="5.78206">
        <ele>594.7126465</ele>
        <time>2013-05-02T11:05:13Z</time>
      </trkpt>
      <trkpt lat="44.31967" lon="5.78292">
        <ele>595.1933594</ele>
        <time>2013-05-02T11:05:35Z</time>
      </trkpt>
      <trkpt lat="44.31961" lon="5.78299">
        <ele>595.1933594</ele>
        <time>2013-05-02T11:05:37Z</time>
      </trkpt>
      <trkpt lat="44.31927" lon="5.78308">
        <ele>593.270752</ele>
        <time>2013-05-02T11:05:43Z</time>
      </trkpt>
      <trkpt lat="44.31905" lon="5.78299">
        <ele>590.8674316</ele>
        <time>2013-05-02T11:05:46Z</time>
      </trkpt>
      <trkpt lat="44.3189" lon="5.78289">
        <ele>589.4255371</ele>
        <time>2013-05-02T11:05:48Z</time>
      </trkpt>
      <trkpt lat="44.31874" lon="5.78284">
        <ele>588.4643555</ele>
        <time>2013-05-02T11:05:50Z</time>
      </trkpt>
      <trkpt lat="44.31846" lon="5.78269">
        <ele>587.0219727</ele>
        <time>2013-05-02T11:05:54Z</time>
      </trkpt>
      <trkpt lat="44.31812" lon="5.78289">
        <ele>583.6574707</ele>
        <time>2013-05-02T11:06:01Z</time>
      </trkpt>
      <trkpt lat="44.31813" lon="5.78303">
        <ele>585.0996094</ele>
        <time>2013-05-02T11:06:03Z</time>
      </trkpt>
      <trkpt lat="44.31814" lon="5.78313">
        <ele>587.0219727</ele>
        <time>2013-05-02T11:06:05Z</time>
      </trkpt>
      <trkpt lat="44.31815" lon="5.78321">
        <ele>588.4643555</ele>
        <time>2013-05-02T11:06:08Z</time>
      </trkpt>
      <trkpt lat="44.31806" lon="5.7837">
        <ele>591.8288574</ele>
        <time>2013-05-02T11:06:25Z</time>
      </trkpt>
      <trkpt lat="44.31792" lon="5.78399">
        <ele>594.7126465</ele>
        <time>2013-05-02T11:06:38Z</time>
      </trkpt>
      <trkpt lat="44.31804" lon="5.78419">
        <ele>593.270752</ele>
        <time>2013-05-02T11:06:47Z</time>
      </trkpt>
      <trkpt lat="44.31758" lon="5.78461">
        <ele>591.3481445</ele>
        <time>2013-05-02T11:06:58Z</time>
      </trkpt>
      <trkpt lat="44.31743" lon="5.78485">
        <ele>590.3869629</ele>
        <time>2013-05-02T11:07:03Z</time>
      </trkpt>
      <trkpt lat="44.31736" lon="5.78493">
        <ele>590.3869629</ele>
        <time>2013-05-02T11:07:05Z</time>
      </trkpt>
      <trkpt lat="44.3169" lon="5.78518">
        <ele>592.3095703</ele>
        <time>2013-05-02T11:07:20Z</time>
      </trkpt>
      <trkpt lat="44.3164" lon="5.78541">
        <ele>595.6740723</ele>
        <time>2013-05-02T11:07:41Z</time>
      </trkpt>
      <trkpt lat="44.31637" lon="5.78542">
        <ele>595.6740723</ele>
        <time>2013-05-02T11:07:42Z</time>
      </trkpt>
      <trkpt lat="44.31602" lon="5.78579">
        <ele>599.0385742</ele>
        <time>2013-05-02T11:08:02Z</time>
      </trkpt>
      <trkpt lat="44.31601" lon="5.78582">
        <ele>599.0385742</ele>
        <time>2013-05-02T11:08:03Z</time>
      </trkpt>
      <trkpt lat="44.31599" lon="5.78655">
        <ele>595.6740723</ele>
        <time>2013-05-02T11:08:17Z</time>
      </trkpt>
      <trkpt lat="44.31599" lon="5.78672">
        <ele>594.7126465</ele>
        <time>2013-05-02T11:08:19Z</time>
      </trkpt>
      <trkpt lat="44.31597" lon="5.78742">
        <ele>591.8288574</ele>
        <time>2013-05-02T11:08:26Z</time>
      </trkpt>
      <trkpt lat="44.31595" lon="5.78764">
        <ele>590.3869629</ele>
        <time>2013-05-02T11:08:28Z</time>
      </trkpt>
      <trkpt lat="44.31595" lon="5.7879">
        <ele>588.9450684</ele>
        <time>2013-05-02T11:08:30Z</time>
      </trkpt>
      <trkpt lat="44.3159" lon="5.78831">
        <ele>586.5415039</ele>
        <time>2013-05-02T11:08:33Z</time>
      </trkpt>
      <trkpt lat="44.31585" lon="5.78859">
        <ele>584.1381836</ele>
        <time>2013-05-02T11:08:35Z</time>
      </trkpt>
      <trkpt lat="44.31582" lon="5.78888">
        <ele>582.6962891</ele>
        <time>2013-05-02T11:08:37Z</time>
      </trkpt>
      <trkpt lat="44.31566" lon="5.78997">
        <ele>579.331543</ele>
        <time>2013-05-02T11:08:45Z</time>
      </trkpt>
      <trkpt lat="44.3154" lon="5.79062">
        <ele>579.331543</ele>
        <time>2013-05-02T11:08:51Z</time>
      </trkpt>
      <trkpt lat="44.31507" lon="5.79169">
        <ele>580.2929688</ele>
        <time>2013-05-02T11:09:03Z</time>
      </trkpt>
      <trkpt lat="44.31487" lon="5.79209">
        <ele>583.6574707</ele>
        <time>2013-05-02T11:09:15Z</time>
      </trkpt>
      <trkpt lat="44.31469" lon="5.79264">
        <ele>585.0996094</ele>
        <time>2013-05-02T11:09:34Z</time>
      </trkpt>
      <trkpt lat="44.31459" lon="5.79319">
        <ele>587.5026855</ele>
        <time>2013-05-02T11:09:52Z</time>
      </trkpt>
      <trkpt lat="44.31459" lon="5.79377">
        <ele>590.3869629</ele>
        <time>2013-05-02T11:10:12Z</time>
      </trkpt>
      <trkpt lat="44.31461" lon="5.79445">
        <ele>593.270752</ele>
        <time>2013-05-02T11:10:35Z</time>
      </trkpt>
      <trkpt lat="44.31452" lon="5.795">
        <ele>596.1547852</ele>
        <time>2013-05-02T11:10:54Z</time>
      </trkpt>
      <trkpt lat="44.31437" lon="5.79559">
        <ele>599.0385742</ele>
        <time>2013-05-02T11:11:17Z</time>
      </trkpt>
      <trkpt lat="44.31425" lon="5.79605">
        <ele>602.4030762</ele>
        <time>2013-05-02T11:11:36Z</time>
      </trkpt>
      <trkpt lat="44.31411" lon="5.79663">
        <ele>604.8066406</ele>
        <time>2013-05-02T11:12:00Z</time>
      </trkpt>
      <trkpt lat="44.31396" lon="5.79712">
        <ele>606.729248</ele>
        <time>2013-05-02T11:12:21Z</time>
      </trkpt>
      <trkpt lat="44.31362" lon="5.79773">
        <ele>605.7680664</ele>
        <time>2013-05-02T11:12:37Z</time>
      </trkpt>
      <trkpt lat="44.31306" lon="5.79863">
        <ele>605.7680664</ele>
        <time>2013-05-02T11:12:59Z</time>
      </trkpt>
      <trkpt lat="44.31251" lon="5.79938">
        <ele>608.1713867</ele>
        <time>2013-05-02T11:13:22Z</time>
      </trkpt>
      <trkpt lat="44.31237" lon="5.79956">
        <ele>607.6906738</ele>
        <time>2013-05-02T11:13:27Z</time>
      </trkpt>
      <trkpt lat="44.31229" lon="5.79984">
        <ele>605.7680664</ele>
        <time>2013-05-02T11:13:32Z</time>
      </trkpt>
      <trkpt lat="44.31228" lon="5.7999">
        <ele>605.7680664</ele>
        <time>2013-05-02T11:13:33Z</time>
      </trkpt>
      <trkpt lat="44.31228" lon="5.80007">
        <ele>607.6906738</ele>
        <time>2013-05-02T11:13:36Z</time>
      </trkpt>
      <trkpt lat="44.31223" lon="5.80056">
        <ele>608.1713867</ele>
        <time>2013-05-02T11:13:45Z</time>
      </trkpt>
      <trkpt lat="44.31195" lon="5.80104">
        <ele>608.1713867</ele>
        <time>2013-05-02T11:13:55Z</time>
      </trkpt>
      <trkpt lat="44.31186" lon="5.80124">
        <ele>608.1713867</ele>
        <time>2013-05-02T11:13:59Z</time>
      </trkpt>
      <trkpt lat="44.31174" lon="5.80168">
        <ele>608.1713867</ele>
        <time>2013-05-02T11:14:09Z</time>
      </trkpt>
      <trkpt lat="44.31155" lon="5.80219">
        <ele>611.5358887</ele>
        <time>2013-05-02T11:14:26Z</time>
      </trkpt>
      <trkpt lat="44.31133" lon="5.80264">
        <ele>612.0166016</ele>
        <time>2013-05-02T11:14:41Z</time>
      </trkpt>
      <trkpt lat="44.31129" lon="5.80271">
        <ele>613.4584961</ele>
        <time>2013-05-02T11:14:43Z</time>
      </trkpt>
      <trkpt lat="44.31117" lon="5.80341">
        <ele>614.4196777</ele>
        <time>2013-05-02T11:15:01Z</time>
      </trkpt>
      <trkpt lat="44.31119" lon="5.80412">
        <ele>615.3811035</ele>
        <time>2013-05-02T11:15:18Z</time>
      </trkpt>
      <trkpt lat="44.31117" lon="5.80485">
        <ele>614.4196777</ele>
        <time>2013-05-02T11:15:33Z</time>
      </trkpt>
      <trkpt lat="44.31093" lon="5.80575">
        <ele>614.4196777</ele>
        <time>2013-05-02T11:15:48Z</time>
      </trkpt>
      <trkpt lat="44.31077" lon="5.80638">
        <ele>616.822998</ele>
        <time>2013-05-02T11:16:03Z</time>
      </trkpt>
      <trkpt lat="44.31053" lon="5.80721">
        <ele>614.4196777</ele>
        <time>2013-05-02T11:16:18Z</time>
      </trkpt>
      <trkpt lat="44.31051" lon="5.80729">
        <ele>613.9389648</ele>
        <time>2013-05-02T11:16:19Z</time>
      </trkpt>
      <trkpt lat="44.31024" lon="5.80802">
        <ele>610.5744629</ele>
        <time>2013-05-02T11:16:28Z</time>
      </trkpt>
      <trkpt lat="44.31015" lon="5.80821">
        <ele>610.09375</ele>
        <time>2013-05-02T11:16:30Z</time>
      </trkpt>
      <trkpt lat="44.31008" lon="5.8084">
        <ele>609.1325684</ele>
        <time>2013-05-02T11:16:32Z</time>
      </trkpt>
      <trkpt lat="44.31003" lon="5.8086">
        <ele>608.6518555</ele>
        <time>2013-05-02T11:16:34Z</time>
      </trkpt>
      <trkpt lat="44.31003" lon="5.80881">
        <ele>609.1325684</ele>
        <time>2013-05-02T11:16:36Z</time>
      </trkpt>
      <trkpt lat="44.30997" lon="5.8091">
        <ele>607.6906738</ele>
        <time>2013-05-02T11:16:39Z</time>
      </trkpt>
      <trkpt lat="44.30982" lon="5.80948">
        <ele>607.2099609</ele>
        <time>2013-05-02T11:16:43Z</time>
      </trkpt>
      <trkpt lat="44.30966" lon="5.80976">
        <ele>605.2873535</ele>
        <time>2013-05-02T11:16:46Z</time>
      </trkpt>
      <trkpt lat="44.3092" lon="5.81095">
        <ele>602.8837891</ele>
        <time>2013-05-02T11:16:58Z</time>
      </trkpt>
      <trkpt lat="44.30892" lon="5.81192">
        <ele>603.8452148</ele>
        <time>2013-05-02T11:17:11Z</time>
      </trkpt>
      <trkpt lat="44.3086" lon="5.81303">
        <ele>602.4030762</ele>
        <time>2013-05-02T11:17:27Z</time>
      </trkpt>
      <trkpt lat="44.30854" lon="5.81324">
        <ele>600.9611816</ele>
        <time>2013-05-02T11:17:30Z</time>
      </trkpt>
      <trkpt lat="44.30845" lon="5.81346">
        <ele>599.0385742</ele>
        <time>2013-05-02T11:17:33Z</time>
      </trkpt>
      <trkpt lat="44.30837" lon="5.81412">
        <ele>595.6740723</ele>
        <time>2013-05-02T11:17:40Z</time>
      </trkpt>
      <trkpt lat="44.30835" lon="5.81423">
        <ele>595.6740723</ele>
        <time>2013-05-02T11:17:41Z</time>
      </trkpt>
      <trkpt lat="44.30831" lon="5.81444">
        <ele>594.2321777</ele>
        <time>2013-05-02T11:17:43Z</time>
      </trkpt>
      <trkpt lat="44.30823" lon="5.8148">
        <ele>591.8288574</ele>
        <time>2013-05-02T11:17:46Z</time>
      </trkpt>
      <trkpt lat="44.30818" lon="5.81505">
        <ele>590.3869629</ele>
        <time>2013-05-02T11:17:48Z</time>
      </trkpt>
      <trkpt lat="44.30813" lon="5.81531">
        <ele>588.9450684</ele>
        <time>2013-05-02T11:17:50Z</time>
      </trkpt>
      <trkpt lat="44.30807" lon="5.81573">
        <ele>586.060791</ele>
        <time>2013-05-02T11:17:53Z</time>
      </trkpt>
      <trkpt lat="44.30804" lon="5.81601">
        <ele>584.1381836</ele>
        <time>2013-05-02T11:17:55Z</time>
      </trkpt>
      <trkpt lat="44.30794" lon="5.81658">
        <ele>580.2929688</ele>
        <time>2013-05-02T11:17:59Z</time>
      </trkpt>
      <trkpt lat="44.30793" lon="5.81672">
        <ele>580.2929688</ele>
        <time>2013-05-02T11:18:00Z</time>
      </trkpt>
      <trkpt lat="44.30783" lon="5.817">
        <ele>579.331543</ele>
        <time>2013-05-02T11:18:02Z</time>
      </trkpt>
      <trkpt lat="44.30773" lon="5.81726">
        <ele>577.4091797</ele>
        <time>2013-05-02T11:18:04Z</time>
      </trkpt>
      <trkpt lat="44.3076" lon="5.81767">
        <ele>574.5251465</ele>
        <time>2013-05-02T11:18:07Z</time>
      </trkpt>
      <trkpt lat="44.30741" lon="5.81834">
        <ele>571.1604004</ele>
        <time>2013-05-02T11:18:12Z</time>
      </trkpt>
      <trkpt lat="44.30734" lon="5.8186">
        <ele>570.6796875</ele>
        <time>2013-05-02T11:18:14Z</time>
      </trkpt>
      <trkpt lat="44.30728" lon="5.81888">
        <ele>569.237793</ele>
        <time>2013-05-02T11:18:16Z</time>
      </trkpt>
      <trkpt lat="44.30723" lon="5.81917">
        <ele>567.3151855</ele>
        <time>2013-05-02T11:18:18Z</time>
      </trkpt>
      <trkpt lat="44.30711" lon="5.81971">
        <ele>563.4699707</ele>
        <time>2013-05-02T11:18:22Z</time>
      </trkpt>
      <trkpt lat="44.30709" lon="5.81984">
        <ele>563.4699707</ele>
        <time>2013-05-02T11:18:23Z</time>
      </trkpt>
      <trkpt lat="44.30708" lon="5.81997">
        <ele>562.5085449</ele>
        <time>2013-05-02T11:18:24Z</time>
      </trkpt>
      <trkpt lat="44.30707" lon="5.82035">
        <ele>560.5859375</ele>
        <time>2013-05-02T11:18:27Z</time>
      </trkpt>
      <trkpt lat="44.30711" lon="5.8207">
        <ele>558.1828613</ele>
        <time>2013-05-02T11:18:30Z</time>
      </trkpt>
      <trkpt lat="44.30716" lon="5.82102">
        <ele>556.7407227</ele>
        <time>2013-05-02T11:18:33Z</time>
      </trkpt>
      <trkpt lat="44.30715" lon="5.82142">
        <ele>556.2600098</ele>
        <time>2013-05-02T11:18:37Z</time>
      </trkpt>
      <trkpt lat="44.30703" lon="5.82181">
        <ele>552.8952637</ele>
        <time>2013-05-02T11:18:41Z</time>
      </trkpt>
      <trkpt lat="44.307" lon="5.82188">
        <ele>551.934082</ele>
        <time>2013-05-02T11:18:42Z</time>
      </trkpt>
      <trkpt lat="44.30683" lon="5.82215">
        <ele>551.4533691</ele>
        <time>2013-05-02T11:18:47Z</time>
      </trkpt>
      <trkpt lat="44.30684" lon="5.82231">
        <ele>550.0114746</ele>
        <time>2013-05-02T11:18:51Z</time>
      </trkpt>
      <trkpt lat="44.30706" lon="5.82213">
        <ele>550.0114746</ele>
        <time>2013-05-02T11:19:01Z</time>
      </trkpt>
      <trkpt lat="44.30747" lon="5.82111">
        <ele>548.0888672</ele>
        <time>2013-05-02T11:19:15Z</time>
      </trkpt>
      <trkpt lat="44.3075" lon="5.82104">
        <ele>548.0888672</ele>
        <time>2013-05-02T11:19:16Z</time>
      </trkpt>
      <trkpt lat="44.30788" lon="5.82074">
        <ele>548.0888672</ele>
        <time>2013-05-02T11:19:23Z</time>
      </trkpt>
      <trkpt lat="44.30877" lon="5.82052">
        <ele>547.1274414</ele>
        <time>2013-05-02T11:19:39Z</time>
      </trkpt>
      <trkpt lat="44.3091" lon="5.82047">
        <ele>545.6855469</ele>
        <time>2013-05-02T11:19:44Z</time>
      </trkpt>
      <trkpt lat="44.30931" lon="5.82044">
        <ele>544.7242432</ele>
        <time>2013-05-02T11:19:47Z</time>
      </trkpt>
      <trkpt lat="44.30992" lon="5.82071">
        <ele>544.2436523</ele>
        <time>2013-05-02T11:19:56Z</time>
      </trkpt>
      <trkpt lat="44.31003" lon="5.82083">
        <ele>544.2436523</ele>
        <time>2013-05-02T11:19:58Z</time>
      </trkpt>
      <trkpt lat="44.31084" lon="5.82188">
        <ele>544.2436523</ele>
        <time>2013-05-02T11:20:17Z</time>
      </trkpt>
      <trkpt lat="44.31115" lon="5.82227">
        <ele>544.7242432</ele>
        <time>2013-05-02T11:20:25Z</time>
      </trkpt>
      <trkpt lat="44.31169" lon="5.82279">
        <ele>547.1274414</ele>
        <time>2013-05-02T11:20:41Z</time>
      </trkpt>
      <trkpt lat="44.31198" lon="5.82277">
        <ele>545.204834</ele>
        <time>2013-05-02T11:20:49Z</time>
      </trkpt>
      <trkpt lat="44.31249" lon="5.82271">
        <ele>548.5693359</ele>
        <time>2013-05-02T11:21:06Z</time>
      </trkpt>
      <trkpt lat="44.31291" lon="5.82267">
        <ele>549.0500488</ele>
        <time>2013-05-02T11:21:22Z</time>
      </trkpt>
      <trkpt lat="44.3132" lon="5.82269">
        <ele>552.4145508</ele>
        <time>2013-05-02T11:21:33Z</time>
      </trkpt>
      <trkpt lat="44.31327" lon="5.82269">
        <ele>552.4145508</ele>
        <time>2013-05-02T11:21:36Z</time>
      </trkpt>
      <trkpt lat="44.31362" lon="5.82283">
        <ele>556.2600098</ele>
        <time>2013-05-02T11:21:52Z</time>
      </trkpt>
      <trkpt lat="44.31409" lon="5.82312">
        <ele>556.7407227</ele>
        <time>2013-05-02T11:22:12Z</time>
      </trkpt>
      <trkpt lat="44.31436" lon="5.82353">
        <ele>556.7407227</ele>
        <time>2013-05-02T11:22:27Z</time>
      </trkpt>
      <trkpt lat="44.31437" lon="5.82356">
        <ele>556.7407227</ele>
        <time>2013-05-02T11:22:29Z</time>
      </trkpt>
      <trkpt lat="44.31468" lon="5.82387">
        <ele>555.7792969</ele>
        <time>2013-05-02T11:22:40Z</time>
      </trkpt>
      <trkpt lat="44.31519" lon="5.82444">
        <ele>552.4145508</ele>
        <time>2013-05-02T11:22:52Z</time>
      </trkpt>
      <trkpt lat="44.31524" lon="5.82449">
        <ele>552.4145508</ele>
        <time>2013-05-02T11:22:53Z</time>
      </trkpt>
      <trkpt lat="44.31583" lon="5.82504">
        <ele>552.4145508</ele>
        <time>2013-05-02T11:23:07Z</time>
      </trkpt>
      <trkpt lat="44.31607" lon="5.8253">
        <ele>551.934082</ele>
        <time>2013-05-02T11:23:13Z</time>
      </trkpt>
      <trkpt lat="44.31619" lon="5.8254">
        <ele>552.8952637</ele>
        <time>2013-05-02T11:23:16Z</time>
      </trkpt>
      <trkpt lat="44.31693" lon="5.82618">
        <ele>553.3759766</ele>
        <time>2013-05-02T11:23:36Z</time>
      </trkpt>
      <trkpt lat="44.31773" lon="5.82698">
        <ele>554.8178711</ele>
        <time>2013-05-02T11:23:59Z</time>
      </trkpt>
      <trkpt lat="44.31868" lon="5.82768">
        <ele>553.8566895</ele>
        <time>2013-05-02T11:24:24Z</time>
      </trkpt>
      <trkpt lat="44.31876" lon="5.82769">
        <ele>555.298584</ele>
        <time>2013-05-02T11:24:26Z</time>
      </trkpt>
      <trkpt lat="44.31924" lon="5.82774">
        <ele>557.2214355</ele>
        <time>2013-05-02T11:24:38Z</time>
      </trkpt>
      <trkpt lat="44.32009" lon="5.82805">
        <ele>559.144043</ele>
        <time>2013-05-02T11:25:01Z</time>
      </trkpt>
      <trkpt lat="44.32057" lon="5.82836">
        <ele>562.9892578</ele>
        <time>2013-05-02T11:25:18Z</time>
      </trkpt>
      <trkpt lat="44.3206" lon="5.82838">
        <ele>562.9892578</ele>
        <time>2013-05-02T11:25:19Z</time>
      </trkpt>
      <trkpt lat="44.32105" lon="5.82859">
        <ele>565.873291</ele>
        <time>2013-05-02T11:25:36Z</time>
      </trkpt>
      <trkpt lat="44.32156" lon="5.82875">
        <ele>565.3925781</ele>
        <time>2013-05-02T11:25:53Z</time>
      </trkpt>
      <trkpt lat="44.3224" lon="5.82918">
        <ele>567.7956543</ele>
        <time>2013-05-02T11:26:17Z</time>
      </trkpt>
      <trkpt lat="44.32248" lon="5.82922">
        <ele>568.2763672</ele>
        <time>2013-05-02T11:26:19Z</time>
      </trkpt>
      <trkpt lat="44.32317" lon="5.82959">
        <ele>569.7185059</ele>
        <time>2013-05-02T11:26:38Z</time>
      </trkpt>
      <trkpt lat="44.32366" lon="5.83006">
        <ele>570.6796875</ele>
        <time>2013-05-02T11:26:55Z</time>
      </trkpt>
      <trkpt lat="44.32393" lon="5.83082">
        <ele>569.237793</ele>
        <time>2013-05-02T11:27:09Z</time>
      </trkpt>
      <trkpt lat="44.32456" lon="5.83152">
        <ele>569.7185059</ele>
        <time>2013-05-02T11:27:24Z</time>
      </trkpt>
      <trkpt lat="44.32473" lon="5.83169">
        <ele>569.7185059</ele>
        <time>2013-05-02T11:27:28Z</time>
      </trkpt>
      <trkpt lat="44.3258" lon="5.83225">
        <ele>569.237793</ele>
        <time>2013-05-02T11:27:49Z</time>
      </trkpt>
      <trkpt lat="44.3267" lon="5.83281">
        <ele>569.7185059</ele>
        <time>2013-05-02T11:28:08Z</time>
      </trkpt>
      <trkpt lat="44.32751" lon="5.83337">
        <ele>570.1989746</ele>
        <time>2013-05-02T11:28:26Z</time>
      </trkpt>
      <trkpt lat="44.32827" lon="5.83385">
        <ele>571.6408691</ele>
        <time>2013-05-02T11:28:45Z</time>
      </trkpt>
      <trkpt lat="44.32895" lon="5.83389">
        <ele>574.5251465</ele>
        <time>2013-05-02T11:29:03Z</time>
      </trkpt>
      <trkpt lat="44.3297" lon="5.83393">
        <ele>577.4091797</ele>
        <time>2013-05-02T11:29:25Z</time>
      </trkpt>
      <trkpt lat="44.33018" lon="5.83398">
        <ele>577.4091797</ele>
        <time>2013-05-02T11:29:38Z</time>
      </trkpt>
      <trkpt lat="44.33065" lon="5.834">
        <ele>577.8896484</ele>
        <time>2013-05-02T11:29:48Z</time>
      </trkpt>
      <trkpt lat="44.33158" lon="5.83392">
        <ele>576.9284668</ele>
        <time>2013-05-02T11:30:08Z</time>
      </trkpt>
      <trkpt lat="44.33203" lon="5.83385">
        <ele>577.4091797</ele>
        <time>2013-05-02T11:30:19Z</time>
      </trkpt>
      <trkpt lat="44.33277" lon="5.83374">
        <ele>579.331543</ele>
        <time>2013-05-02T11:30:37Z</time>
      </trkpt>
      <trkpt lat="44.33387" lon="5.83358">
        <ele>581.2543945</ele>
        <time>2013-05-02T11:31:04Z</time>
      </trkpt>
      <trkpt lat="44.33492" lon="5.83344">
        <ele>583.1767578</ele>
        <time>2013-05-02T11:31:30Z</time>
      </trkpt>
      <trkpt lat="44.33589" lon="5.83357">
        <ele>586.060791</ele>
        <time>2013-05-02T11:31:56Z</time>
      </trkpt>
      <trkpt lat="44.33639" lon="5.83364">
        <ele>587.9833984</ele>
        <time>2013-05-02T11:32:11Z</time>
      </trkpt>
      <trkpt lat="44.33732" lon="5.8337">
        <ele>590.3869629</ele>
        <time>2013-05-02T11:32:36Z</time>
      </trkpt>
      <trkpt lat="44.33803" lon="5.8338">
        <ele>591.8288574</ele>
        <time>2013-05-02T11:32:55Z</time>
      </trkpt>
      <trkpt lat="44.33881" lon="5.83397">
        <ele>594.7126465</ele>
        <time>2013-05-02T11:33:16Z</time>
      </trkpt>
      <trkpt lat="44.33975" lon="5.83436">
        <ele>597.1159668</ele>
        <time>2013-05-02T11:33:41Z</time>
      </trkpt>
      <trkpt lat="44.34054" lon="5.83513">
        <ele>600.4807129</ele>
        <time>2013-05-02T11:34:05Z</time>
      </trkpt>
      <trkpt lat="44.34113" lon="5.83573">
        <ele>601.4418945</ele>
        <time>2013-05-02T11:34:23Z</time>
      </trkpt>
      <trkpt lat="44.34192" lon="5.83654">
        <ele>601.4418945</ele>
        <time>2013-05-02T11:34:43Z</time>
      </trkpt>
      <trkpt lat="44.34238" lon="5.8371">
        <ele>602.4030762</ele>
        <time>2013-05-02T11:34:56Z</time>
      </trkpt>
      <trkpt lat="44.34261" lon="5.83742">
        <ele>602.4030762</ele>
        <time>2013-05-02T11:35:04Z</time>
      </trkpt>
      <trkpt lat="44.34267" lon="5.8375">
        <ele>602.8837891</ele>
        <time>2013-05-02T11:35:06Z</time>
      </trkpt>
      <trkpt lat="44.34315" lon="5.83813">
        <ele>603.8452148</ele>
        <time>2013-05-02T11:35:23Z</time>
      </trkpt>
      <trkpt lat="44.34376" lon="5.8389">
        <ele>605.7680664</ele>
        <time>2013-05-02T11:35:44Z</time>
      </trkpt>
      <trkpt lat="44.34455" lon="5.83991">
        <ele>606.729248</ele>
        <time>2013-05-02T11:36:09Z</time>
      </trkpt>
      <trkpt lat="44.34521" lon="5.8408">
        <ele>606.2485352</ele>
        <time>2013-05-02T11:36:29Z</time>
      </trkpt>
      <trkpt lat="44.34602" lon="5.84195">
        <ele>607.6906738</ele>
        <time>2013-05-02T11:36:54Z</time>
      </trkpt>
      <trkpt lat="44.3463" lon="5.84304">
        <ele>608.1713867</ele>
        <time>2013-05-02T11:37:12Z</time>
      </trkpt>
      <trkpt lat="44.34647" lon="5.84367">
        <ele>611.5358887</ele>
        <time>2013-05-02T11:37:24Z</time>
      </trkpt>
      <trkpt lat="44.34686" lon="5.84439">
        <ele>612.0166016</ele>
        <time>2013-05-02T11:37:41Z</time>
      </trkpt>
      <trkpt lat="44.3472" lon="5.84479">
        <ele>612.0166016</ele>
        <time>2013-05-02T11:37:53Z</time>
      </trkpt>
      <trkpt lat="44.3474" lon="5.84504">
        <ele>612.9777832</ele>
        <time>2013-05-02T11:38:00Z</time>
      </trkpt>
      <trkpt lat="44.34756" lon="5.84522">
        <ele>613.4584961</ele>
        <time>2013-05-02T11:38:05Z</time>
      </trkpt>
      <trkpt lat="44.34819" lon="5.84597">
        <ele>614.4196777</ele>
        <time>2013-05-02T11:38:26Z</time>
      </trkpt>
      <trkpt lat="44.34892" lon="5.84706">
        <ele>616.822998</ele>
        <time>2013-05-02T11:38:53Z</time>
      </trkpt>
      <trkpt lat="44.34895" lon="5.84711">
        <ele>616.822998</ele>
        <time>2013-05-02T11:38:54Z</time>
      </trkpt>
      <trkpt lat="44.34961" lon="5.84777">
        <ele>617.7841797</ele>
        <time>2013-05-02T11:39:16Z</time>
      </trkpt>
      <trkpt lat="44.34964" lon="5.84779">
        <ele>617.7841797</ele>
        <time>2013-05-02T11:39:17Z</time>
      </trkpt>
      <trkpt lat="44.35023" lon="5.84837">
        <ele>619.2263184</ele>
        <time>2013-05-02T11:39:37Z</time>
      </trkpt>
      <trkpt lat="44.3504" lon="5.84856">
        <ele>620.668457</ele>
        <time>2013-05-02T11:39:43Z</time>
      </trkpt>
      <trkpt lat="44.35075" lon="5.84909">
        <ele>622.1103516</ele>
        <time>2013-05-02T11:39:56Z</time>
      </trkpt>
      <trkpt lat="44.35106" lon="5.84974">
        <ele>623.0717773</ele>
        <time>2013-05-02T11:40:13Z</time>
      </trkpt>
      <trkpt lat="44.35125" lon="5.85015">
        <ele>624.5136719</ele>
        <time>2013-05-02T11:40:23Z</time>
      </trkpt>
      <trkpt lat="44.35159" lon="5.85073">
        <ele>624.5136719</ele>
        <time>2013-05-02T11:40:38Z</time>
      </trkpt>
      <trkpt lat="44.35212" lon="5.85137">
        <ele>624.032959</ele>
        <time>2013-05-02T11:40:56Z</time>
      </trkpt>
      <trkpt lat="44.3524" lon="5.85196">
        <ele>627.8781738</ele>
        <time>2013-05-02T11:41:09Z</time>
      </trkpt>
      <trkpt lat="44.35241" lon="5.85201">
        <ele>627.8781738</ele>
        <time>2013-05-02T11:41:10Z</time>
      </trkpt>
      <trkpt lat="44.3525" lon="5.8523">
        <ele>628.3588867</ele>
        <time>2013-05-02T11:41:17Z</time>
      </trkpt>
      <trkpt lat="44.35258" lon="5.85258">
        <ele>629.8007813</ele>
        <time>2013-05-02T11:41:23Z</time>
      </trkpt>
      <trkpt lat="44.35274" lon="5.85311">
        <ele>628.3588867</ele>
        <time>2013-05-02T11:41:35Z</time>
      </trkpt>
      <trkpt lat="44.35295" lon="5.85383">
        <ele>630.762207</ele>
        <time>2013-05-02T11:41:52Z</time>
      </trkpt>
      <trkpt lat="44.35332" lon="5.85459">
        <ele>632.2041016</ele>
        <time>2013-05-02T11:42:13Z</time>
      </trkpt>
      <trkpt lat="44.35376" lon="5.85509">
        <ele>633.6459961</ele>
        <time>2013-05-02T11:42:31Z</time>
      </trkpt>
      <trkpt lat="44.35441" lon="5.8558">
        <ele>636.0495605</ele>
        <time>2013-05-02T11:42:56Z</time>
      </trkpt>
      <trkpt lat="44.35495" lon="5.8564">
        <ele>638.9335938</ele>
        <time>2013-05-02T11:43:16Z</time>
      </trkpt>
      <trkpt lat="44.35552" lon="5.85704">
        <ele>641.3366699</ele>
        <time>2013-05-02T11:43:38Z</time>
      </trkpt>
      <trkpt lat="44.35613" lon="5.85777">
        <ele>643.7399902</ele>
        <time>2013-05-02T11:44:03Z</time>
      </trkpt>
      <trkpt lat="44.35665" lon="5.85857">
        <ele>646.6240234</ele>
        <time>2013-05-02T11:44:27Z</time>
      </trkpt>
      <trkpt lat="44.3569" lon="5.85896">
        <ele>648.065918</ele>
        <time>2013-05-02T11:44:39Z</time>
      </trkpt>
      <trkpt lat="44.35741" lon="5.85979">
        <ele>649.9885254</ele>
        <time>2013-05-02T11:45:03Z</time>
      </trkpt>
      <trkpt lat="44.35759" lon="5.86008">
        <ele>651.4304199</ele>
        <time>2013-05-02T11:45:11Z</time>
      </trkpt>
      <trkpt lat="44.35788" lon="5.86074">
        <ele>652.3918457</ele>
        <time>2013-05-02T11:45:25Z</time>
      </trkpt>
      <trkpt lat="44.35817" lon="5.86212">
        <ele>653.3532715</ele>
        <time>2013-05-02T11:45:52Z</time>
      </trkpt>
      <trkpt lat="44.35855" lon="5.86303">
        <ele>654.3146973</ele>
        <time>2013-05-02T11:46:11Z</time>
      </trkpt>
      <trkpt lat="44.35858" lon="5.86309">
        <ele>654.3146973</ele>
        <time>2013-05-02T11:46:12Z</time>
      </trkpt>
      <trkpt lat="44.35889" lon="5.86421">
        <ele>652.8725586</ele>
        <time>2013-05-02T11:46:31Z</time>
      </trkpt>
      <trkpt lat="44.35917" lon="5.86545">
        <ele>654.3146973</ele>
        <time>2013-05-02T11:46:50Z</time>
      </trkpt>
      <trkpt lat="44.35952" lon="5.86698">
        <ele>652.3918457</ele>
        <time>2013-05-02T11:47:10Z</time>
      </trkpt>
      <trkpt lat="44.35967" lon="5.86735">
        <ele>651.4304199</ele>
        <time>2013-05-02T11:47:15Z</time>
      </trkpt>
      <trkpt lat="44.36004" lon="5.86813">
        <ele>647.5852051</ele>
        <time>2013-05-02T11:47:25Z</time>
      </trkpt>
      <trkpt lat="44.36039" lon="5.86884">
        <ele>644.7011719</ele>
        <time>2013-05-02T11:47:33Z</time>
      </trkpt>
      <trkpt lat="44.36052" lon="5.86913">
        <ele>643.7399902</ele>
        <time>2013-05-02T11:47:36Z</time>
      </trkpt>
      <trkpt lat="44.36088" lon="5.86988">
        <ele>641.3366699</ele>
        <time>2013-05-02T11:47:43Z</time>
      </trkpt>
      <trkpt lat="44.36098" lon="5.87012">
        <ele>640.3754883</ele>
        <time>2013-05-02T11:47:45Z</time>
      </trkpt>
      <trkpt lat="44.36106" lon="5.87038">
        <ele>637.972168</ele>
        <time>2013-05-02T11:47:47Z</time>
      </trkpt>
      <trkpt lat="44.36117" lon="5.87098">
        <ele>635.0881348</ele>
        <time>2013-05-02T11:47:51Z</time>
      </trkpt>
      <trkpt lat="44.36119" lon="5.87114">
        <ele>635.0881348</ele>
        <time>2013-05-02T11:47:52Z</time>
      </trkpt>
      <trkpt lat="44.36125" lon="5.87146">
        <ele>633.6459961</ele>
        <time>2013-05-02T11:47:54Z</time>
      </trkpt>
      <trkpt lat="44.3613" lon="5.87176">
        <ele>631.7233887</ele>
        <time>2013-05-02T11:47:56Z</time>
      </trkpt>
      <trkpt lat="44.36135" lon="5.87205">
        <ele>630.2814941</ele>
        <time>2013-05-02T11:47:58Z</time>
      </trkpt>
      <trkpt lat="44.36142" lon="5.8725">
        <ele>628.3588867</ele>
        <time>2013-05-02T11:48:01Z</time>
      </trkpt>
      <trkpt lat="44.36145" lon="5.87264">
        <ele>626.9169922</ele>
        <time>2013-05-02T11:48:02Z</time>
      </trkpt>
      <trkpt lat="44.36181" lon="5.87326">
        <ele>624.5136719</ele>
        <time>2013-05-02T11:48:08Z</time>
      </trkpt>
      <trkpt lat="44.36197" lon="5.87345">
        <ele>619.2263184</ele>
        <time>2013-05-02T11:48:10Z</time>
      </trkpt>
      <trkpt lat="44.36203" lon="5.87417">
        <ele>618.2648926</ele>
        <time>2013-05-02T11:48:17Z</time>
      </trkpt>
      <trkpt lat="44.362" lon="5.87427">
        <ele>617.7841797</ele>
        <time>2013-05-02T11:48:18Z</time>
      </trkpt>
      <trkpt lat="44.36193" lon="5.87448">
        <ele>617.3037109</ele>
        <time>2013-05-02T11:48:20Z</time>
      </trkpt>
      <trkpt lat="44.36188" lon="5.87494">
        <ele>616.822998</ele>
        <time>2013-05-02T11:48:24Z</time>
      </trkpt>
      <trkpt lat="44.36193" lon="5.87532">
        <ele>613.9389648</ele>
        <time>2013-05-02T11:48:27Z</time>
      </trkpt>
      <trkpt lat="44.36201" lon="5.87585">
        <ele>613.4584961</ele>
        <time>2013-05-02T11:48:31Z</time>
      </trkpt>
      <trkpt lat="44.3621" lon="5.87623">
        <ele>611.5358887</ele>
        <time>2013-05-02T11:48:34Z</time>
      </trkpt>
      <trkpt lat="44.36218" lon="5.8765">
        <ele>609.1325684</ele>
        <time>2013-05-02T11:48:36Z</time>
      </trkpt>
      <trkpt lat="44.36218" lon="5.8768">
        <ele>608.6518555</ele>
        <time>2013-05-02T11:48:38Z</time>
      </trkpt>
      <trkpt lat="44.36217" lon="5.87709">
        <ele>607.2099609</ele>
        <time>2013-05-02T11:48:40Z</time>
      </trkpt>
      <trkpt lat="44.36238" lon="5.87831">
        <ele>603.8452148</ele>
        <time>2013-05-02T11:48:49Z</time>
      </trkpt>
      <trkpt lat="44.36244" lon="5.87869">
        <ele>603.8452148</ele>
        <time>2013-05-02T11:48:52Z</time>
      </trkpt>
      <trkpt lat="44.36246" lon="5.87903">
        <ele>603.8452148</ele>
        <time>2013-05-02T11:48:55Z</time>
      </trkpt>
      <trkpt lat="44.36243" lon="5.87944">
        <ele>604.8066406</ele>
        <time>2013-05-02T11:48:59Z</time>
      </trkpt>
      <trkpt lat="44.36246" lon="5.87986">
        <ele>602.4030762</ele>
        <time>2013-05-02T11:49:03Z</time>
      </trkpt>
      <trkpt lat="44.36273" lon="5.88075">
        <ele>599.5192871</ele>
        <time>2013-05-02T11:49:11Z</time>
      </trkpt>
      <trkpt lat="44.363" lon="5.88179">
        <ele>600.4807129</ele>
        <time>2013-05-02T11:49:22Z</time>
      </trkpt>
      <trkpt lat="44.36316" lon="5.88249">
        <ele>600</ele>
        <time>2013-05-02T11:49:30Z</time>
      </trkpt>
      <trkpt lat="44.36334" lon="5.88325">
        <ele>597.5966797</ele>
        <time>2013-05-02T11:49:38Z</time>
      </trkpt>
      <trkpt lat="44.36345" lon="5.88356">
        <ele>595.6740723</ele>
        <time>2013-05-02T11:49:41Z</time>
      </trkpt>
      <trkpt lat="44.36372" lon="5.88456">
        <ele>596.635498</ele>
        <time>2013-05-02T11:49:52Z</time>
      </trkpt>
      <trkpt lat="44.36372" lon="5.88514">
        <ele>599.5192871</ele>
        <time>2013-05-02T11:50:04Z</time>
      </trkpt>
      <trkpt lat="44.36372" lon="5.8858">
        <ele>600</ele>
        <time>2013-05-02T11:50:18Z</time>
      </trkpt>
      <trkpt lat="44.36371" lon="5.88622">
        <ele>599.5192871</ele>
        <time>2013-05-02T11:50:25Z</time>
      </trkpt>
      <trkpt lat="44.36346" lon="5.88704">
        <ele>600.4807129</ele>
        <time>2013-05-02T11:50:39Z</time>
      </trkpt>
      <trkpt lat="44.36339" lon="5.88775">
        <ele>600.9611816</ele>
        <time>2013-05-02T11:50:53Z</time>
      </trkpt>
      <trkpt lat="44.36342" lon="5.88787">
        <ele>600.4807129</ele>
        <time>2013-05-02T11:50:55Z</time>
      </trkpt>
      <trkpt lat="44.36387" lon="5.88903">
        <ele>596.1547852</ele>
        <time>2013-05-02T11:51:10Z</time>
      </trkpt>
      <trkpt lat="44.3643" lon="5.89016">
        <ele>596.635498</ele>
        <time>2013-05-02T11:51:24Z</time>
      </trkpt>
      <trkpt lat="44.36468" lon="5.89117">
        <ele>592.7902832</ele>
        <time>2013-05-02T11:51:38Z</time>
      </trkpt>
      <trkpt lat="44.36471" lon="5.89126">
        <ele>592.7902832</ele>
        <time>2013-05-02T11:51:39Z</time>
      </trkpt>
      <trkpt lat="44.36523" lon="5.89262">
        <ele>588.9450684</ele>
        <time>2013-05-02T11:51:54Z</time>
      </trkpt>
      <trkpt lat="44.36544" lon="5.89328">
        <ele>586.5415039</ele>
        <time>2013-05-02T11:52:00Z</time>
      </trkpt>
      <trkpt lat="44.36545" lon="5.8934">
        <ele>585.5800781</ele>
        <time>2013-05-02T11:52:01Z</time>
      </trkpt>
      <trkpt lat="44.36554" lon="5.89407">
        <ele>586.060791</ele>
        <time>2013-05-02T11:52:07Z</time>
      </trkpt>
      <trkpt lat="44.36558" lon="5.89425">
        <ele>586.5415039</ele>
        <time>2013-05-02T11:52:09Z</time>
      </trkpt>
      <trkpt lat="44.36564" lon="5.8944">
        <ele>587.0219727</ele>
        <time>2013-05-02T11:52:11Z</time>
      </trkpt>
      <trkpt lat="44.36642" lon="5.89566">
        <ele>585.5800781</ele>
        <time>2013-05-02T11:52:30Z</time>
      </trkpt>
      <trkpt lat="44.36686" lon="5.89634">
        <ele>587.5026855</ele>
        <time>2013-05-02T11:52:43Z</time>
      </trkpt>
      <trkpt lat="44.36733" lon="5.89707">
        <ele>588.9450684</ele>
        <time>2013-05-02T11:53:00Z</time>
      </trkpt>
      <trkpt lat="44.36771" lon="5.89767">
        <ele>589.4255371</ele>
        <time>2013-05-02T11:53:13Z</time>
      </trkpt>
      <trkpt lat="44.36805" lon="5.8985">
        <ele>587.5026855</ele>
        <time>2013-05-02T11:53:26Z</time>
      </trkpt>
      <trkpt lat="44.36874" lon="5.89927">
        <ele>586.5415039</ele>
        <time>2013-05-02T11:53:38Z</time>
      </trkpt>
      <trkpt lat="44.36879" lon="5.8993">
        <ele>586.5415039</ele>
        <time>2013-05-02T11:53:39Z</time>
      </trkpt>
      <trkpt lat="44.36912" lon="5.8995">
        <ele>589.4255371</ele>
        <time>2013-05-02T11:53:49Z</time>
      </trkpt>
      <trkpt lat="44.36973" lon="5.89989">
        <ele>593.270752</ele>
        <time>2013-05-02T11:54:13Z</time>
      </trkpt>
      <trkpt lat="44.37015" lon="5.90006">
        <ele>594.7126465</ele>
        <time>2013-05-02T11:54:30Z</time>
      </trkpt>
      <trkpt lat="44.37067" lon="5.90009">
        <ele>593.7514648</ele>
        <time>2013-05-02T11:54:44Z</time>
      </trkpt>
      <trkpt lat="44.37082" lon="5.89998">
        <ele>590.8674316</ele>
        <time>2013-05-02T11:54:47Z</time>
      </trkpt>
      <trkpt lat="44.37087" lon="5.89993">
        <ele>590.8674316</ele>
        <time>2013-05-02T11:54:48Z</time>
      </trkpt>
      <trkpt lat="44.37098" lon="5.89981">
        <ele>589.90625</ele>
        <time>2013-05-02T11:54:50Z</time>
      </trkpt>
      <trkpt lat="44.3711" lon="5.89967">
        <ele>589.4255371</ele>
        <time>2013-05-02T11:54:52Z</time>
      </trkpt>
      <trkpt lat="44.37123" lon="5.89954">
        <ele>587.9833984</ele>
        <time>2013-05-02T11:54:54Z</time>
      </trkpt>
      <trkpt lat="44.37171" lon="5.89957">
        <ele>587.5026855</ele>
        <time>2013-05-02T11:55:00Z</time>
      </trkpt>
      <trkpt lat="44.37188" lon="5.89973">
        <ele>587.5026855</ele>
        <time>2013-05-02T11:55:03Z</time>
      </trkpt>
      <trkpt lat="44.37234" lon="5.90035">
        <ele>589.4255371</ele>
        <time>2013-05-02T11:55:15Z</time>
      </trkpt>
      <trkpt lat="44.37285" lon="5.90105">
        <ele>591.8288574</ele>
        <time>2013-05-02T11:55:34Z</time>
      </trkpt>
      <trkpt lat="44.37331" lon="5.90164">
        <ele>594.2321777</ele>
        <time>2013-05-02T11:55:53Z</time>
      </trkpt>
      <trkpt lat="44.37375" lon="5.9022">
        <ele>596.635498</ele>
        <time>2013-05-02T11:56:13Z</time>
      </trkpt>
      <trkpt lat="44.37422" lon="5.90283">
        <ele>598.0773926</ele>
        <time>2013-05-02T11:56:35Z</time>
      </trkpt>
      <trkpt lat="44.37455" lon="5.90327">
        <ele>600</ele>
        <time>2013-05-02T11:56:50Z</time>
      </trkpt>
      <trkpt lat="44.37505" lon="5.90386">
        <ele>601.9226074</ele>
        <time>2013-05-02T11:57:10Z</time>
      </trkpt>
      <trkpt lat="44.37554" lon="5.90447">
        <ele>601.9226074</ele>
        <time>2013-05-02T11:57:28Z</time>
      </trkpt>
      <trkpt lat="44.37642" lon="5.90506">
        <ele>600.9611816</ele>
        <time>2013-05-02T11:57:47Z</time>
      </trkpt>
      <trkpt lat="44.37667" lon="5.90522">
        <ele>601.4418945</ele>
        <time>2013-05-02T11:57:52Z</time>
      </trkpt>
      <trkpt lat="44.37743" lon="5.90614">
        <ele>599.5192871</ele>
        <time>2013-05-02T11:58:11Z</time>
      </trkpt>
      <trkpt lat="44.37812" lon="5.90687">
        <ele>599.5192871</ele>
        <time>2013-05-02T11:58:25Z</time>
      </trkpt>
      <trkpt lat="44.37898" lon="5.9077">
        <ele>598.0773926</ele>
        <time>2013-05-02T11:58:42Z</time>
      </trkpt>
      <trkpt lat="44.37955" lon="5.9086">
        <ele>597.1159668</ele>
        <time>2013-05-02T11:58:56Z</time>
      </trkpt>
      <trkpt lat="44.38015" lon="5.90996">
        <ele>596.1547852</ele>
        <time>2013-05-02T11:59:13Z</time>
      </trkpt>
      <trkpt lat="44.38064" lon="5.91114">
        <ele>597.1159668</ele>
        <time>2013-05-02T11:59:30Z</time>
      </trkpt>
      <trkpt lat="44.3814" lon="5.91302">
        <ele>596.1547852</ele>
        <time>2013-05-02T11:59:57Z</time>
      </trkpt>
      <trkpt lat="44.38226" lon="5.91476">
        <ele>594.7126465</ele>
        <time>2013-05-02T12:00:24Z</time>
      </trkpt>
      <trkpt lat="44.38297" lon="5.91608">
        <ele>595.6740723</ele>
        <time>2013-05-02T12:00:46Z</time>
      </trkpt>
      <trkpt lat="44.38368" lon="5.9174">
        <ele>594.7126465</ele>
        <time>2013-05-02T12:01:07Z</time>
      </trkpt>
      <trkpt lat="44.38429" lon="5.91852">
        <ele>593.7514648</ele>
        <time>2013-05-02T12:01:25Z</time>
      </trkpt>
      <trkpt lat="44.38496" lon="5.91981">
        <ele>591.3481445</ele>
        <time>2013-05-02T12:01:43Z</time>
      </trkpt>
      <trkpt lat="44.38575" lon="5.9213">
        <ele>589.4255371</ele>
        <time>2013-05-02T12:02:01Z</time>
      </trkpt>
      <trkpt lat="44.38596" lon="5.92215">
        <ele>590.3869629</ele>
        <time>2013-05-02T12:02:12Z</time>
      </trkpt>
      <trkpt lat="44.38628" lon="5.92301">
        <ele>592.7902832</ele>
        <time>2013-05-02T12:02:31Z</time>
      </trkpt>
      <trkpt lat="44.38654" lon="5.92388">
        <ele>592.7902832</ele>
        <time>2013-05-02T12:02:47Z</time>
      </trkpt>
      <trkpt lat="44.38659" lon="5.92442">
        <ele>592.7902832</ele>
        <time>2013-05-02T12:02:55Z</time>
      </trkpt>
      <trkpt lat="44.38677" lon="5.92601">
        <ele>589.4255371</ele>
        <time>2013-05-02T12:03:15Z</time>
      </trkpt>
      <trkpt lat="44.38695" lon="5.92675">
        <ele>586.5415039</ele>
        <time>2013-05-02T12:03:22Z</time>
      </trkpt>
      <trkpt lat="44.387" lon="5.9271">
        <ele>586.060791</ele>
        <time>2013-05-02T12:03:25Z</time>
      </trkpt>
      <trkpt lat="44.38693" lon="5.92754">
        <ele>585.0996094</ele>
        <time>2013-05-02T12:03:29Z</time>
      </trkpt>
      <trkpt lat="44.38684" lon="5.92808">
        <ele>584.6188965</ele>
        <time>2013-05-02T12:03:34Z</time>
      </trkpt>
      <trkpt lat="44.38672" lon="5.92946">
        <ele>582.6962891</ele>
        <time>2013-05-02T12:03:48Z</time>
      </trkpt>
      <trkpt lat="44.38666" lon="5.92973">
        <ele>581.7348633</ele>
        <time>2013-05-02T12:03:51Z</time>
      </trkpt>
      <trkpt lat="44.38678" lon="5.93096">
        <ele>580.2929688</ele>
        <time>2013-05-02T12:04:04Z</time>
      </trkpt>
      <trkpt lat="44.3872" lon="5.9327">
        <ele>576.9284668</ele>
        <time>2013-05-02T12:04:22Z</time>
      </trkpt>
      <trkpt lat="44.38722" lon="5.93395">
        <ele>574.0444336</ele>
        <time>2013-05-02T12:04:33Z</time>
      </trkpt>
      <trkpt lat="44.38715" lon="5.93481">
        <ele>571.1604004</ele>
        <time>2013-05-02T12:04:40Z</time>
      </trkpt>
      <trkpt lat="44.38714" lon="5.93493">
        <ele>571.1604004</ele>
        <time>2013-05-02T12:04:41Z</time>
      </trkpt>
      <trkpt lat="44.38712" lon="5.93531">
        <ele>569.7185059</ele>
        <time>2013-05-02T12:04:44Z</time>
      </trkpt>
      <trkpt lat="44.38703" lon="5.93701">
        <ele>566.3537598</ele>
        <time>2013-05-02T12:04:58Z</time>
      </trkpt>
      <trkpt lat="44.38693" lon="5.93836">
        <ele>562.9892578</ele>
        <time>2013-05-02T12:05:10Z</time>
      </trkpt>
      <trkpt lat="44.38695" lon="5.93875">
        <ele>561.5473633</ele>
        <time>2013-05-02T12:05:13Z</time>
      </trkpt>
      <trkpt lat="44.38666" lon="5.93907">
        <ele>558.6633301</ele>
        <time>2013-05-02T12:05:19Z</time>
      </trkpt>
      <trkpt lat="44.38659" lon="5.9391">
        <ele>556.7407227</ele>
        <time>2013-05-02T12:05:20Z</time>
      </trkpt>
      <trkpt lat="44.38604" lon="5.93919">
        <ele>553.3759766</ele>
        <time>2013-05-02T12:05:26Z</time>
      </trkpt>
      <trkpt lat="44.38586" lon="5.93923">
        <ele>551.4533691</ele>
        <time>2013-05-02T12:05:28Z</time>
      </trkpt>
      <trkpt lat="44.38525" lon="5.93935">
        <ele>548.0888672</ele>
        <time>2013-05-02T12:05:35Z</time>
      </trkpt>
      <trkpt lat="44.3851" lon="5.9394">
        <ele>547.1274414</ele>
        <time>2013-05-02T12:05:37Z</time>
      </trkpt>
      <trkpt lat="44.38502" lon="5.93968">
        <ele>545.6855469</ele>
        <time>2013-05-02T12:05:41Z</time>
      </trkpt>
      <trkpt lat="44.38504" lon="5.93988">
        <ele>545.204834</ele>
        <time>2013-05-02T12:05:44Z</time>
      </trkpt>
      <trkpt lat="44.38506" lon="5.94002">
        <ele>546.6468506</ele>
        <time>2013-05-02T12:05:46Z</time>
      </trkpt>
      <trkpt lat="44.38509" lon="5.94037">
        <ele>546.1662598</ele>
        <time>2013-05-02T12:05:51Z</time>
      </trkpt>
      <trkpt lat="44.38507" lon="5.94062">
        <ele>546.6468506</ele>
        <time>2013-05-02T12:05:55Z</time>
      </trkpt>
      <trkpt lat="44.38506" lon="5.94073">
        <ele>546.6468506</ele>
        <time>2013-05-02T12:05:57Z</time>
      </trkpt>
      <trkpt lat="44.38497" lon="5.9417">
        <ele>549.0500488</ele>
        <time>2013-05-02T12:06:13Z</time>
      </trkpt>
      <trkpt lat="44.38491" lon="5.9422">
        <ele>549.5307617</ele>
        <time>2013-05-02T12:06:23Z</time>
      </trkpt>
      <trkpt lat="44.38491" lon="5.94225">
        <ele>549.0500488</ele>
        <time>2013-05-02T12:06:24Z</time>
      </trkpt>
      <trkpt lat="44.38489" lon="5.94247">
        <ele>548.5693359</ele>
        <time>2013-05-02T12:06:28Z</time>
      </trkpt>
      <trkpt lat="44.38505" lon="5.94238">
        <ele>548.0888672</ele>
        <time>2013-05-02T12:06:33Z</time>
      </trkpt>
      <trkpt lat="44.3849" lon="5.94227">
        <ele>549.0500488</ele>
        <time>2013-05-02T12:06:43Z</time>
      </trkpt>
      <trkpt lat="44.3849" lon="5.94227">
        <ele>550.9726563</ele>
        <time>2013-05-02T12:07:05Z</time>
      </trkpt>
    </trkseg>
  </trk>
</gpx>